<?xml version='1.0' encoding='UTF-8'?><gpx version="1.1" creator="JPX - https://github.com/jenetics/jpx" xmlns="http://www.topografix.com/GPX/1/1"><trk><trkseg><trkpt lat="46.6679151" lon="12.3995387"><ele>1526.0</ele><time>2026-04-07T14:44:13.578Z</time></trkpt><trkpt lat="46.6678344" lon="12.3995151"><ele>1526.0</ele><time>2026-04-07T14:44:18.527Z</time></trkpt><trkpt lat="46.667788" lon="12.3994512"><ele>1526.0</ele><time>2026-04-07T14:44:21.591Z</time></trkpt><trkpt lat="46.6677494" lon="12.3993783"><ele>1526.0</ele><time>2026-04-07T14:44:24.49Z</time></trkpt><trkpt lat="46.6677101" lon="12.3992769"><ele>1526.0</ele><time>2026-04-07T14:44:28.578Z</time></trkpt><trkpt lat="46.667697" lon="12.3991713"><ele>1526.0</ele><time>2026-04-07T14:44:35.577Z</time></trkpt><trkpt lat="46.6676989" lon="12.3990724"><ele>1526.0</ele><time>2026-04-07T14:44:39.578Z</time></trkpt><trkpt lat="46.6676489" lon="12.3989941"><ele>1527.5</ele><time>2026-04-07T14:44:43.578Z</time></trkpt><trkpt lat="46.6675753" lon="12.3990182"><ele>1529.0</ele><time>2026-04-07T14:44:46.578Z</time></trkpt><trkpt lat="46.6675069" lon="12.3990953"><ele>1530.5</ele><time>2026-04-07T14:44:49.585Z</time></trkpt><trkpt lat="46.66744" lon="12.3991723"><ele>1532.0</ele><time>2026-04-07T14:44:52.617Z</time></trkpt><trkpt lat="46.6673814" lon="12.3992417"><ele>1533.5</ele><time>2026-04-07T14:44:55.577Z</time></trkpt><trkpt lat="46.6673145" lon="12.3993084"><ele>1535.0</ele><time>2026-04-07T14:44:58.577Z</time></trkpt><trkpt lat="46.6672325" lon="12.3993578"><ele>1535.0</ele><time>2026-04-07T14:45:01.577Z</time></trkpt><trkpt lat="46.6671527" lon="12.3994097"><ele>1535.0</ele><time>2026-04-07T14:45:04.578Z</time></trkpt><trkpt lat="46.6670735" lon="12.3994676"><ele>1535.0</ele><time>2026-04-07T14:45:07.591Z</time></trkpt><trkpt lat="46.6669981" lon="12.3995184"><ele>1535.0</ele><time>2026-04-07T14:45:10.578Z</time></trkpt><trkpt lat="46.666922" lon="12.399571"><ele>1535.0</ele><time>2026-04-07T14:45:13.578Z</time></trkpt><trkpt lat="46.6668462" lon="12.3996213"><ele>1535.0</ele><time>2026-04-07T14:45:16.504Z</time></trkpt><trkpt lat="46.6667759" lon="12.399683"><ele>1536.0</ele><time>2026-04-07T14:45:19.578Z</time></trkpt><trkpt lat="46.6667041" lon="12.3997335"><ele>1537.0</ele><time>2026-04-07T14:45:22.576Z</time></trkpt><trkpt lat="46.6666288" lon="12.3997837"><ele>1538.0</ele><time>2026-04-07T14:45:25.578Z</time></trkpt><trkpt lat="46.666553" lon="12.3998239"><ele>1539.0</ele><time>2026-04-07T14:45:28.577Z</time></trkpt><trkpt lat="46.6664767" lon="12.3998594"><ele>1539.9999999999998</ele><time>2026-04-07T14:45:31.572Z</time></trkpt><trkpt lat="46.6664063" lon="12.3999159"><ele>1541.0</ele><time>2026-04-07T14:45:34.577Z</time></trkpt><trkpt lat="46.6663267" lon="12.3999595"><ele>1540.9999999999998</ele><time>2026-04-07T14:45:37.577Z</time></trkpt><trkpt lat="46.6662466" lon="12.4000113"><ele>1541.0</ele><time>2026-04-07T14:45:40.577Z</time></trkpt><trkpt lat="46.6661647" lon="12.4000623"><ele>1541.0</ele><time>2026-04-07T14:45:43.577Z</time></trkpt><trkpt lat="46.6660855" lon="12.4001144"><ele>1541.0</ele><time>2026-04-07T14:45:46.578Z</time></trkpt><trkpt lat="46.6660073" lon="12.4001658"><ele>1540.9999999999998</ele><time>2026-04-07T14:45:49.546Z</time></trkpt><trkpt lat="46.6659312" lon="12.400217"><ele>1541.0</ele><time>2026-04-07T14:45:52.551Z</time></trkpt><trkpt lat="46.6658607" lon="12.4002702"><ele>1542.1666666666665</ele><time>2026-04-07T14:45:55.578Z</time></trkpt><trkpt lat="46.6657868" lon="12.4003195"><ele>1543.3333333333333</ele><time>2026-04-07T14:45:58.577Z</time></trkpt><trkpt lat="46.6657098" lon="12.4003643"><ele>1544.5</ele><time>2026-04-07T14:46:01.578Z</time></trkpt><trkpt lat="46.6656354" lon="12.4004099"><ele>1545.6666666666665</ele><time>2026-04-07T14:46:04.577Z</time></trkpt><trkpt lat="46.6655646" lon="12.4004564"><ele>1546.8333333333333</ele><time>2026-04-07T14:46:07.577Z</time></trkpt><trkpt lat="46.6654954" lon="12.4005051"><ele>1548.0</ele><time>2026-04-07T14:46:10.577Z</time></trkpt><trkpt lat="46.6654136" lon="12.4005221"><ele>1548.0</ele><time>2026-04-07T14:46:13.576Z</time></trkpt><trkpt lat="46.665332" lon="12.4005577"><ele>1548.0</ele><time>2026-04-07T14:46:16.577Z</time></trkpt><trkpt lat="46.6652453" lon="12.4005708"><ele>1548.0</ele><time>2026-04-07T14:46:19.578Z</time></trkpt><trkpt lat="46.6651525" lon="12.4005739"><ele>1548.0</ele><time>2026-04-07T14:46:22.577Z</time></trkpt><trkpt lat="46.665065" lon="12.4005658"><ele>1548.0</ele><time>2026-04-07T14:46:25.578Z</time></trkpt><trkpt lat="46.6649798" lon="12.4005413"><ele>1548.0</ele><time>2026-04-07T14:46:28.577Z</time></trkpt><trkpt lat="46.6648954" lon="12.4005014"><ele>1550.6666666666667</ele><time>2026-04-07T14:46:31.578Z</time></trkpt><trkpt lat="46.6648069" lon="12.4004571"><ele>1553.3333333333335</ele><time>2026-04-07T14:46:34.577Z</time></trkpt><trkpt lat="46.6647204" lon="12.4004217"><ele>1556.0</ele><time>2026-04-07T14:46:37.577Z</time></trkpt><trkpt lat="46.6646337" lon="12.400403"><ele>1558.6666666666667</ele><time>2026-04-07T14:46:40.578Z</time></trkpt><trkpt lat="46.6645452" lon="12.4004034"><ele>1561.3333333333335</ele><time>2026-04-07T14:46:43.577Z</time></trkpt><trkpt lat="46.664483" lon="12.4004238"><ele>1564.0</ele><time>2026-04-07T14:46:45.578Z</time></trkpt><trkpt lat="46.6644209" lon="12.4004587"><ele>1563.8571428571427</ele><time>2026-04-07T14:46:47.578Z</time></trkpt><trkpt lat="46.6643619" lon="12.4005043"><ele>1563.7142857142858</ele><time>2026-04-07T14:46:49.578Z</time></trkpt><trkpt lat="46.664308" lon="12.4005632"><ele>1563.5714285714284</ele><time>2026-04-07T14:46:51.578Z</time></trkpt><trkpt lat="46.6642541" lon="12.4006212"><ele>1563.4285714285713</ele><time>2026-04-07T14:46:53.578Z</time></trkpt><trkpt lat="46.6641962" lon="12.4006722"><ele>1563.2857142857142</ele><time>2026-04-07T14:46:55.578Z</time></trkpt><trkpt lat="46.6641395" lon="12.4007225"><ele>1563.142857142857</ele><time>2026-04-07T14:46:57.577Z</time></trkpt><trkpt lat="46.6640826" lon="12.400767"><ele>1563.0</ele><time>2026-04-07T14:46:59.491Z</time></trkpt><trkpt lat="46.6640237" lon="12.4008172"><ele>1563.0</ele><time>2026-04-07T14:47:01.528Z</time></trkpt><trkpt lat="46.6639658" lon="12.4008625"><ele>1563.0</ele><time>2026-04-07T14:47:03.577Z</time></trkpt><trkpt lat="46.6639133" lon="12.4009195"><ele>1563.0</ele><time>2026-04-07T14:47:05.578Z</time></trkpt><trkpt lat="46.6638693" lon="12.4009919"><ele>1563.0</ele><time>2026-04-07T14:47:07.578Z</time></trkpt><trkpt lat="46.663827" lon="12.4010713"><ele>1563.0</ele><time>2026-04-07T14:47:09.577Z</time></trkpt><trkpt lat="46.6637859" lon="12.4011505"><ele>1563.0</ele><time>2026-04-07T14:47:11.51Z</time></trkpt><trkpt lat="46.6637388" lon="12.4012261"><ele>1563.0</ele><time>2026-04-07T14:47:13.578Z</time></trkpt><trkpt lat="46.6636862" lon="12.4012904"><ele>1563.857142857143</ele><time>2026-04-07T14:47:15.578Z</time></trkpt><trkpt lat="46.6636323" lon="12.4013519"><ele>1564.7142857142856</ele><time>2026-04-07T14:47:17.577Z</time></trkpt><trkpt lat="46.6635766" lon="12.4014095"><ele>1565.5714285714284</ele><time>2026-04-07T14:47:19.576Z</time></trkpt><trkpt lat="46.6635193" lon="12.4014615"><ele>1566.4285714285716</ele><time>2026-04-07T14:47:21.577Z</time></trkpt><trkpt lat="46.6634613" lon="12.4015109"><ele>1567.2857142857142</ele><time>2026-04-07T14:47:23.577Z</time></trkpt><trkpt lat="46.6634064" lon="12.4015668"><ele>1568.142857142857</ele><time>2026-04-07T14:47:25.577Z</time></trkpt><trkpt lat="46.663349" lon="12.4016185"><ele>1569.0</ele><time>2026-04-07T14:47:27.577Z</time></trkpt><trkpt lat="46.6632897" lon="12.4016658"><ele>1569.0</ele><time>2026-04-07T14:47:29.578Z</time></trkpt><trkpt lat="46.663229" lon="12.4017147"><ele>1569.0</ele><time>2026-04-07T14:47:31.577Z</time></trkpt><trkpt lat="46.6631736" lon="12.4017701"><ele>1569.0</ele><time>2026-04-07T14:47:33.578Z</time></trkpt><trkpt lat="46.6631197" lon="12.4018282"><ele>1569.0</ele><time>2026-04-07T14:47:35.577Z</time></trkpt><trkpt lat="46.66307" lon="12.4018946"><ele>1569.0</ele><time>2026-04-07T14:47:37.578Z</time></trkpt><trkpt lat="46.6630306" lon="12.4019802"><ele>1569.0</ele><time>2026-04-07T14:47:39.578Z</time></trkpt><trkpt lat="46.6629983" lon="12.4020694"><ele>1569.0</ele><time>2026-04-07T14:47:41.577Z</time></trkpt><trkpt lat="46.662967" lon="12.4021576"><ele>1568.7142857142858</ele><time>2026-04-07T14:47:43.531Z</time></trkpt><trkpt lat="46.6629232" lon="12.4022401"><ele>1568.4285714285716</ele><time>2026-04-07T14:47:45.578Z</time></trkpt><trkpt lat="46.6628791" lon="12.4023173"><ele>1568.142857142857</ele><time>2026-04-07T14:47:47.577Z</time></trkpt><trkpt lat="46.6628283" lon="12.4023866"><ele>1567.857142857143</ele><time>2026-04-07T14:47:49.578Z</time></trkpt><trkpt lat="46.662771" lon="12.4024432"><ele>1567.5714285714284</ele><time>2026-04-07T14:47:51.577Z</time></trkpt><trkpt lat="46.662707" lon="12.4024748"><ele>1567.2857142857142</ele><time>2026-04-07T14:47:53.577Z</time></trkpt><trkpt lat="46.6626432" lon="12.4025022"><ele>1567.0</ele><time>2026-04-07T14:47:55.554Z</time></trkpt><trkpt lat="46.6625791" lon="12.4025319"><ele>1568.142857142857</ele><time>2026-04-07T14:47:57.577Z</time></trkpt><trkpt lat="46.6625153" lon="12.4025603"><ele>1569.2857142857142</ele><time>2026-04-07T14:47:59.577Z</time></trkpt><trkpt lat="46.6624556" lon="12.4025956"><ele>1570.4285714285716</ele><time>2026-04-07T14:48:01.577Z</time></trkpt><trkpt lat="46.6624009" lon="12.4026499"><ele>1571.5714285714284</ele><time>2026-04-07T14:48:03.578Z</time></trkpt><trkpt lat="46.6623583" lon="12.4027186"><ele>1572.7142857142858</ele><time>2026-04-07T14:48:05.577Z</time></trkpt><trkpt lat="46.6623126" lon="12.4027842"><ele>1573.857142857143</ele><time>2026-04-07T14:48:07.578Z</time></trkpt><trkpt lat="46.662265" lon="12.4028496"><ele>1575.0</ele><time>2026-04-07T14:48:09.578Z</time></trkpt><trkpt lat="46.6622183" lon="12.4029163"><ele>1575.0</ele><time>2026-04-07T14:48:11.577Z</time></trkpt><trkpt lat="46.662173" lon="12.4029861"><ele>1575.0</ele><time>2026-04-07T14:48:13.559Z</time></trkpt><trkpt lat="46.6621299" lon="12.4030568"><ele>1575.0</ele><time>2026-04-07T14:48:15.578Z</time></trkpt><trkpt lat="46.6620827" lon="12.4031241"><ele>1575.0</ele><time>2026-04-07T14:48:17.578Z</time></trkpt><trkpt lat="46.662036" lon="12.4031894"><ele>1575.0</ele><time>2026-04-07T14:48:19.578Z</time></trkpt><trkpt lat="46.6619879" lon="12.4032544"><ele>1575.0</ele><time>2026-04-07T14:48:21.577Z</time></trkpt><trkpt lat="46.6619378" lon="12.4033126"><ele>1575.0</ele><time>2026-04-07T14:48:23.539Z</time></trkpt><trkpt lat="46.6618813" lon="12.4033609"><ele>1576.2857142857142</ele><time>2026-04-07T14:48:25.577Z</time></trkpt><trkpt lat="46.6618229" lon="12.4033959"><ele>1577.5714285714284</ele><time>2026-04-07T14:48:27.577Z</time></trkpt><trkpt lat="46.6617324" lon="12.4034202"><ele>1578.857142857143</ele><time>2026-04-07T14:48:30.577Z</time></trkpt><trkpt lat="46.6616669" lon="12.4034451"><ele>1580.142857142857</ele><time>2026-04-07T14:48:32.578Z</time></trkpt><trkpt lat="46.6616007" lon="12.4034782"><ele>1581.4285714285713</ele><time>2026-04-07T14:48:34.575Z</time></trkpt><trkpt lat="46.6615364" lon="12.4035187"><ele>1582.7142857142858</ele><time>2026-04-07T14:48:36.578Z</time></trkpt><trkpt lat="46.6614714" lon="12.4035655"><ele>1584.0</ele><time>2026-04-07T14:48:38.576Z</time></trkpt><trkpt lat="46.661406" lon="12.4036067"><ele>1584.0</ele><time>2026-04-07T14:48:40.578Z</time></trkpt><trkpt lat="46.6613405" lon="12.4036479"><ele>1584.0</ele><time>2026-04-07T14:48:42.601Z</time></trkpt><trkpt lat="46.6612793" lon="12.4036844"><ele>1584.0</ele><time>2026-04-07T14:48:44.577Z</time></trkpt><trkpt lat="46.6612196" lon="12.4037312"><ele>1584.0</ele><time>2026-04-07T14:48:46.578Z</time></trkpt><trkpt lat="46.6611622" lon="12.4037824"><ele>1584.0</ele><time>2026-04-07T14:48:48.577Z</time></trkpt><trkpt lat="46.6611042" lon="12.4038349"><ele>1584.0</ele><time>2026-04-07T14:48:50.578Z</time></trkpt><trkpt lat="46.661048" lon="12.4038937"><ele>1584.0</ele><time>2026-04-07T14:48:52.577Z</time></trkpt><trkpt lat="46.6609918" lon="12.4039489"><ele>1584.2857142857144</ele><time>2026-04-07T14:48:54.577Z</time></trkpt><trkpt lat="46.6609371" lon="12.4040056"><ele>1584.5714285714284</ele><time>2026-04-07T14:48:56.578Z</time></trkpt><trkpt lat="46.6608826" lon="12.4040606"><ele>1584.857142857143</ele><time>2026-04-07T14:48:58.577Z</time></trkpt><trkpt lat="46.6608256" lon="12.4041024"><ele>1585.1428571428573</ele><time>2026-04-07T14:49:00.578Z</time></trkpt><trkpt lat="46.660773" lon="12.4041586"><ele>1585.4285714285716</ele><time>2026-04-07T14:49:02.578Z</time></trkpt><trkpt lat="46.6607187" lon="12.4042144"><ele>1585.7142857142858</ele><time>2026-04-07T14:49:04.577Z</time></trkpt><trkpt lat="46.6606646" lon="12.404266"><ele>1586.0</ele><time>2026-04-07T14:49:06.577Z</time></trkpt><trkpt lat="46.6606108" lon="12.4043209"><ele>1586.0000000000002</ele><time>2026-04-07T14:49:08.578Z</time></trkpt><trkpt lat="46.6605578" lon="12.4043761"><ele>1586.0</ele><time>2026-04-07T14:49:10.578Z</time></trkpt><trkpt lat="46.6605115" lon="12.4044449"><ele>1586.0</ele><time>2026-04-07T14:49:12.636Z</time></trkpt><trkpt lat="46.660451" lon="12.4045482"><ele>1586.0</ele><time>2026-04-07T14:49:15.536Z</time></trkpt><trkpt lat="46.6604209" lon="12.4046364"><ele>1586.0</ele><time>2026-04-07T14:49:17.576Z</time></trkpt><trkpt lat="46.6603946" lon="12.4047298"><ele>1586.0000000000002</ele><time>2026-04-07T14:49:19.604Z</time></trkpt><trkpt lat="46.6603691" lon="12.404819"><ele>1586.0</ele><time>2026-04-07T14:49:21.557Z</time></trkpt><trkpt lat="46.6603415" lon="12.4049136"><ele>1585.7142857142858</ele><time>2026-04-07T14:49:23.577Z</time></trkpt><trkpt lat="46.660318" lon="12.4050094"><ele>1585.4285714285716</ele><time>2026-04-07T14:49:25.577Z</time></trkpt><trkpt lat="46.6602948" lon="12.4050988"><ele>1585.1428571428573</ele><time>2026-04-07T14:49:27.576Z</time></trkpt><trkpt lat="46.6602684" lon="12.4051881"><ele>1584.857142857143</ele><time>2026-04-07T14:49:29.577Z</time></trkpt><trkpt lat="46.6602415" lon="12.4052759"><ele>1584.5714285714284</ele><time>2026-04-07T14:49:31.578Z</time></trkpt><trkpt lat="46.6602152" lon="12.4053661"><ele>1584.2857142857144</ele><time>2026-04-07T14:49:33.576Z</time></trkpt><trkpt lat="46.6601889" lon="12.4054552"><ele>1584.0</ele><time>2026-04-07T14:49:35.578Z</time></trkpt><trkpt lat="46.6601615" lon="12.4055385"><ele>1585.7142857142858</ele><time>2026-04-07T14:49:37.479Z</time></trkpt><trkpt lat="46.6601307" lon="12.4056262"><ele>1587.4285714285713</ele><time>2026-04-07T14:49:39.578Z</time></trkpt><trkpt lat="46.6601063" lon="12.4057176"><ele>1589.142857142857</ele><time>2026-04-07T14:49:41.578Z</time></trkpt><trkpt lat="46.6600779" lon="12.4058073"><ele>1590.857142857143</ele><time>2026-04-07T14:49:43.578Z</time></trkpt><trkpt lat="46.6600502" lon="12.4058971"><ele>1592.5714285714284</ele><time>2026-04-07T14:49:45.578Z</time></trkpt><trkpt lat="46.6600198" lon="12.4059867"><ele>1594.2857142857142</ele><time>2026-04-07T14:49:47.578Z</time></trkpt><trkpt lat="46.6599911" lon="12.4060738"><ele>1596.0</ele><time>2026-04-07T14:49:49.559Z</time></trkpt><trkpt lat="46.6599589" lon="12.4061614"><ele>1596.0</ele><time>2026-04-07T14:49:51.577Z</time></trkpt><trkpt lat="46.6599273" lon="12.4062474"><ele>1596.0</ele><time>2026-04-07T14:49:53.576Z</time></trkpt><trkpt lat="46.6598919" lon="12.406332"><ele>1596.0</ele><time>2026-04-07T14:49:55.577Z</time></trkpt><trkpt lat="46.659856" lon="12.406418"><ele>1596.0</ele><time>2026-04-07T14:49:57.578Z</time></trkpt><trkpt lat="46.6598203" lon="12.406504"><ele>1596.0</ele><time>2026-04-07T14:49:59.578Z</time></trkpt><trkpt lat="46.6597874" lon="12.4065862"><ele>1596.0</ele><time>2026-04-07T14:50:01.478Z</time></trkpt><trkpt lat="46.659752" lon="12.4066766"><ele>1596.0</ele><time>2026-04-07T14:50:03.577Z</time></trkpt><trkpt lat="46.659725" lon="12.4067667"><ele>1596.142857142857</ele><time>2026-04-07T14:50:05.576Z</time></trkpt><trkpt lat="46.6597" lon="12.4068569"><ele>1596.2857142857142</ele><time>2026-04-07T14:50:07.577Z</time></trkpt><trkpt lat="46.6596715" lon="12.406948"><ele>1596.4285714285716</ele><time>2026-04-07T14:50:09.577Z</time></trkpt><trkpt lat="46.6596482" lon="12.4070435"><ele>1596.5714285714284</ele><time>2026-04-07T14:50:11.577Z</time></trkpt><trkpt lat="46.6596275" lon="12.4071363"><ele>1596.7142857142858</ele><time>2026-04-07T14:50:13.478Z</time></trkpt><trkpt lat="46.6596083" lon="12.4072349"><ele>1596.857142857143</ele><time>2026-04-07T14:50:15.578Z</time></trkpt><trkpt lat="46.6595923" lon="12.4073286"><ele>1597.0</ele><time>2026-04-07T14:50:17.578Z</time></trkpt><trkpt lat="46.6595783" lon="12.4074276"><ele>1597.142857142857</ele><time>2026-04-07T14:50:19.578Z</time></trkpt><trkpt lat="46.6595695" lon="12.4075264"><ele>1597.2857142857142</ele><time>2026-04-07T14:50:21.578Z</time></trkpt><trkpt lat="46.659561" lon="12.4076259"><ele>1597.4285714285716</ele><time>2026-04-07T14:50:23.578Z</time></trkpt><trkpt lat="46.6595527" lon="12.4077264"><ele>1597.5714285714284</ele><time>2026-04-07T14:50:25.578Z</time></trkpt><trkpt lat="46.6595507" lon="12.4078292"><ele>1597.7142857142856</ele><time>2026-04-07T14:50:27.577Z</time></trkpt><trkpt lat="46.6595449" lon="12.4079288"><ele>1597.857142857143</ele><time>2026-04-07T14:50:29.577Z</time></trkpt><trkpt lat="46.659535" lon="12.4080292"><ele>1598.0</ele><time>2026-04-07T14:50:31.577Z</time></trkpt><trkpt lat="46.6595259" lon="12.4081278"><ele>1598.0</ele><time>2026-04-07T14:50:33.576Z</time></trkpt><trkpt lat="46.6595189" lon="12.4082297"><ele>1598.0</ele><time>2026-04-07T14:50:35.58Z</time></trkpt><trkpt lat="46.659512" lon="12.4083282"><ele>1598.0</ele><time>2026-04-07T14:50:37.577Z</time></trkpt><trkpt lat="46.6595078" lon="12.4084304"><ele>1598.0</ele><time>2026-04-07T14:50:39.576Z</time></trkpt><trkpt lat="46.6595012" lon="12.4085308"><ele>1598.0</ele><time>2026-04-07T14:50:41.578Z</time></trkpt><trkpt lat="46.6594938" lon="12.4086264"><ele>1598.0</ele><time>2026-04-07T14:50:43.578Z</time></trkpt><trkpt lat="46.6594854" lon="12.4087277"><ele>1598.0</ele><time>2026-04-07T14:50:45.578Z</time></trkpt><trkpt lat="46.6594764" lon="12.4088322"><ele>1597.857142857143</ele><time>2026-04-07T14:50:47.578Z</time></trkpt><trkpt lat="46.6594654" lon="12.4089346"><ele>1597.7142857142856</ele><time>2026-04-07T14:50:49.578Z</time></trkpt><trkpt lat="46.6594548" lon="12.4090353"><ele>1597.5714285714284</ele><time>2026-04-07T14:50:51.577Z</time></trkpt><trkpt lat="46.6594462" lon="12.4091386"><ele>1597.4285714285716</ele><time>2026-04-07T14:50:53.578Z</time></trkpt><trkpt lat="46.65944" lon="12.4092383"><ele>1597.2857142857142</ele><time>2026-04-07T14:50:55.578Z</time></trkpt><trkpt lat="46.6594373" lon="12.409338"><ele>1597.142857142857</ele><time>2026-04-07T14:50:57.578Z</time></trkpt><trkpt lat="46.6594256" lon="12.4094383"><ele>1597.0</ele><time>2026-04-07T14:50:59.578Z</time></trkpt><trkpt lat="46.6594184" lon="12.4095409"><ele>1599.0</ele><time>2026-04-07T14:51:01.577Z</time></trkpt><trkpt lat="46.6594103" lon="12.4096438"><ele>1601.0</ele><time>2026-04-07T14:51:03.578Z</time></trkpt><trkpt lat="46.6594023" lon="12.4097433"><ele>1603.0</ele><time>2026-04-07T14:51:05.578Z</time></trkpt><trkpt lat="46.6593924" lon="12.409842"><ele>1605.0</ele><time>2026-04-07T14:51:07.577Z</time></trkpt><trkpt lat="46.6593765" lon="12.4099408"><ele>1607.0</ele><time>2026-04-07T14:51:09.577Z</time></trkpt><trkpt lat="46.6593586" lon="12.4100365"><ele>1609.0</ele><time>2026-04-07T14:51:11.578Z</time></trkpt><trkpt lat="46.659335" lon="12.4101263"><ele>1611.0</ele><time>2026-04-07T14:51:13.577Z</time></trkpt><trkpt lat="46.6593085" lon="12.4102167"><ele>1611.142857142857</ele><time>2026-04-07T14:51:15.578Z</time></trkpt><trkpt lat="46.659275" lon="12.4103042"><ele>1611.2857142857142</ele><time>2026-04-07T14:51:17.577Z</time></trkpt><trkpt lat="46.659238" lon="12.4103862"><ele>1611.4285714285716</ele><time>2026-04-07T14:51:19.577Z</time></trkpt><trkpt lat="46.6592065" lon="12.4104703"><ele>1611.5714285714284</ele><time>2026-04-07T14:51:21.576Z</time></trkpt><trkpt lat="46.6591813" lon="12.4105619"><ele>1611.7142857142856</ele><time>2026-04-07T14:51:23.577Z</time></trkpt><trkpt lat="46.6591621" lon="12.4106565"><ele>1611.857142857143</ele><time>2026-04-07T14:51:25.578Z</time></trkpt><trkpt lat="46.6591458" lon="12.4107522"><ele>1612.0</ele><time>2026-04-07T14:51:27.578Z</time></trkpt><trkpt lat="46.6591384" lon="12.4108496"><ele>1612.0</ele><time>2026-04-07T14:51:29.577Z</time></trkpt><trkpt lat="46.6591313" lon="12.4109451"><ele>1612.0</ele><time>2026-04-07T14:51:31.578Z</time></trkpt><trkpt lat="46.6591218" lon="12.4110377"><ele>1612.0</ele><time>2026-04-07T14:51:33.577Z</time></trkpt><trkpt lat="46.6591022" lon="12.4111305"><ele>1612.0</ele><time>2026-04-07T14:51:35.578Z</time></trkpt><trkpt lat="46.6590726" lon="12.4112175"><ele>1612.0</ele><time>2026-04-07T14:51:37.578Z</time></trkpt><trkpt lat="46.6590374" lon="12.4113003"><ele>1612.0</ele><time>2026-04-07T14:51:39.577Z</time></trkpt><trkpt lat="46.6589979" lon="12.4113821"><ele>1612.0</ele><time>2026-04-07T14:51:41.578Z</time></trkpt><trkpt lat="46.6589504" lon="12.4114568"><ele>1611.5000000000002</ele><time>2026-04-07T14:51:43.578Z</time></trkpt><trkpt lat="46.658904" lon="12.4115272"><ele>1611.0</ele><time>2026-04-07T14:51:45.577Z</time></trkpt><trkpt lat="46.65886" lon="12.4115995"><ele>1610.5</ele><time>2026-04-07T14:51:47.577Z</time></trkpt><trkpt lat="46.6588062" lon="12.4117087"><ele>1610.0</ele><time>2026-04-07T14:51:50.576Z</time></trkpt><trkpt lat="46.6587717" lon="12.4118375"><ele>1609.5000000000002</ele><time>2026-04-07T14:51:53.578Z</time></trkpt><trkpt lat="46.6587582" lon="12.4119305"><ele>1609.0</ele><time>2026-04-07T14:51:55.578Z</time></trkpt><trkpt lat="46.6587508" lon="12.4120295"><ele>1609.0</ele><time>2026-04-07T14:51:57.577Z</time></trkpt><trkpt lat="46.6587415" lon="12.4121253"><ele>1609.0</ele><time>2026-04-07T14:51:59.577Z</time></trkpt><trkpt lat="46.6587289" lon="12.4122174"><ele>1609.0</ele><time>2026-04-07T14:52:01.578Z</time></trkpt><trkpt lat="46.6587181" lon="12.4123113"><ele>1609.0</ele><time>2026-04-07T14:52:03.577Z</time></trkpt><trkpt lat="46.6587035" lon="12.4124082"><ele>1609.0</ele><time>2026-04-07T14:52:05.578Z</time></trkpt><trkpt lat="46.6586825" lon="12.4125037"><ele>1609.0</ele><time>2026-04-07T14:52:07.577Z</time></trkpt><trkpt lat="46.6586588" lon="12.4125977"><ele>1609.0</ele><time>2026-04-07T14:52:09.578Z</time></trkpt><trkpt lat="46.6586329" lon="12.4126888"><ele>1610.2857142857142</ele><time>2026-04-07T14:52:11.578Z</time></trkpt><trkpt lat="46.6586062" lon="12.4127791"><ele>1611.5714285714284</ele><time>2026-04-07T14:52:13.577Z</time></trkpt><trkpt lat="46.6585784" lon="12.4128688"><ele>1612.857142857143</ele><time>2026-04-07T14:52:15.578Z</time></trkpt><trkpt lat="46.6585501" lon="12.412962"><ele>1614.142857142857</ele><time>2026-04-07T14:52:17.578Z</time></trkpt><trkpt lat="46.6585197" lon="12.4130524"><ele>1615.4285714285716</ele><time>2026-04-07T14:52:19.578Z</time></trkpt><trkpt lat="46.6584903" lon="12.4131407"><ele>1616.7142857142858</ele><time>2026-04-07T14:52:21.578Z</time></trkpt><trkpt lat="46.6584621" lon="12.4132313"><ele>1618.0</ele><time>2026-04-07T14:52:23.578Z</time></trkpt><trkpt lat="46.6584312" lon="12.4133239"><ele>1618.0</ele><time>2026-04-07T14:52:25.578Z</time></trkpt><trkpt lat="46.658401" lon="12.4134185"><ele>1618.0</ele><time>2026-04-07T14:52:27.577Z</time></trkpt><trkpt lat="46.6583709" lon="12.4135099"><ele>1618.0</ele><time>2026-04-07T14:52:29.578Z</time></trkpt><trkpt lat="46.6583428" lon="12.4135999"><ele>1618.0</ele><time>2026-04-07T14:52:31.578Z</time></trkpt><trkpt lat="46.6583133" lon="12.4136893"><ele>1618.0</ele><time>2026-04-07T14:52:33.577Z</time></trkpt><trkpt lat="46.6582861" lon="12.4137765"><ele>1618.0</ele><time>2026-04-07T14:52:35.577Z</time></trkpt><trkpt lat="46.6582613" lon="12.4138657"><ele>1618.0</ele><time>2026-04-07T14:52:37.578Z</time></trkpt><trkpt lat="46.6582302" lon="12.4139512"><ele>1617.857142857143</ele><time>2026-04-07T14:52:39.578Z</time></trkpt><trkpt lat="46.6581997" lon="12.4140377"><ele>1617.7142857142858</ele><time>2026-04-07T14:52:41.578Z</time></trkpt><trkpt lat="46.6581715" lon="12.4141263"><ele>1617.5714285714284</ele><time>2026-04-07T14:52:43.578Z</time></trkpt><trkpt lat="46.6581418" lon="12.4142132"><ele>1617.4285714285716</ele><time>2026-04-07T14:52:45.577Z</time></trkpt><trkpt lat="46.6581163" lon="12.4142998"><ele>1617.2857142857142</ele><time>2026-04-07T14:52:47.578Z</time></trkpt><trkpt lat="46.6580862" lon="12.4143863"><ele>1617.142857142857</ele><time>2026-04-07T14:52:49.578Z</time></trkpt><trkpt lat="46.6580535" lon="12.4144742"><ele>1617.0</ele><time>2026-04-07T14:52:51.577Z</time></trkpt><trkpt lat="46.6580226" lon="12.4145612"><ele>1617.0</ele><time>2026-04-07T14:52:53.578Z</time></trkpt><trkpt lat="46.6579958" lon="12.4146472"><ele>1617.0</ele><time>2026-04-07T14:52:55.578Z</time></trkpt><trkpt lat="46.6579696" lon="12.4147354"><ele>1617.0</ele><time>2026-04-07T14:52:57.576Z</time></trkpt><trkpt lat="46.6579481" lon="12.4148266"><ele>1617.0</ele><time>2026-04-07T14:52:59.577Z</time></trkpt><trkpt lat="46.65793" lon="12.4149215"><ele>1617.0</ele><time>2026-04-07T14:53:01.578Z</time></trkpt><trkpt lat="46.6579149" lon="12.4150169"><ele>1617.0</ele><time>2026-04-07T14:53:03.578Z</time></trkpt><trkpt lat="46.6579012" lon="12.4151153"><ele>1617.0</ele><time>2026-04-07T14:53:05.577Z</time></trkpt><trkpt lat="46.6578901" lon="12.4152166"><ele>1617.142857142857</ele><time>2026-04-07T14:53:07.578Z</time></trkpt><trkpt lat="46.6578767" lon="12.4153166"><ele>1617.2857142857142</ele><time>2026-04-07T14:53:09.577Z</time></trkpt><trkpt lat="46.6578652" lon="12.4154147"><ele>1617.4285714285716</ele><time>2026-04-07T14:53:11.578Z</time></trkpt><trkpt lat="46.6578549" lon="12.4155154"><ele>1617.5714285714284</ele><time>2026-04-07T14:53:13.578Z</time></trkpt><trkpt lat="46.6578446" lon="12.4156169"><ele>1617.7142857142858</ele><time>2026-04-07T14:53:15.578Z</time></trkpt><trkpt lat="46.6578342" lon="12.415717"><ele>1617.857142857143</ele><time>2026-04-07T14:53:17.578Z</time></trkpt><trkpt lat="46.6578146" lon="12.4158145"><ele>1618.0</ele><time>2026-04-07T14:53:19.578Z</time></trkpt><trkpt lat="46.6577961" lon="12.4159135"><ele>1620.142857142857</ele><time>2026-04-07T14:53:21.577Z</time></trkpt><trkpt lat="46.6577843" lon="12.416014"><ele>1622.2857142857142</ele><time>2026-04-07T14:53:23.577Z</time></trkpt><trkpt lat="46.6577613" lon="12.4161159"><ele>1624.4285714285716</ele><time>2026-04-07T14:53:25.578Z</time></trkpt><trkpt lat="46.6577313" lon="12.4162175"><ele>1626.5714285714284</ele><time>2026-04-07T14:53:27.577Z</time></trkpt><trkpt lat="46.6577035" lon="12.4163219"><ele>1628.7142857142856</ele><time>2026-04-07T14:53:29.578Z</time></trkpt><trkpt lat="46.657673" lon="12.4164276"><ele>1630.857142857143</ele><time>2026-04-07T14:53:31.577Z</time></trkpt><trkpt lat="46.6576434" lon="12.4165261"><ele>1633.0</ele><time>2026-04-07T14:53:33.577Z</time></trkpt><trkpt lat="46.6576118" lon="12.4166265"><ele>1633.1666666666667</ele><time>2026-04-07T14:53:35.578Z</time></trkpt><trkpt lat="46.6575813" lon="12.4167247"><ele>1633.3333333333335</ele><time>2026-04-07T14:53:37.578Z</time></trkpt><trkpt lat="46.6575526" lon="12.4168265"><ele>1633.5</ele><time>2026-04-07T14:53:39.577Z</time></trkpt><trkpt lat="46.6575142" lon="12.4169305"><ele>1633.6666666666665</ele><time>2026-04-07T14:53:41.577Z</time></trkpt><trkpt lat="46.6574815" lon="12.4170413"><ele>1633.8333333333333</ele><time>2026-04-07T14:53:43.577Z</time></trkpt><trkpt lat="46.6574527" lon="12.4171457"><ele>1634.0</ele><time>2026-04-07T14:53:45.576Z</time></trkpt><trkpt lat="46.6574249" lon="12.417253"><ele>1634.1666666666665</ele><time>2026-04-07T14:53:47.577Z</time></trkpt><trkpt lat="46.6573901" lon="12.4173498"><ele>1634.3333333333333</ele><time>2026-04-07T14:53:49.578Z</time></trkpt><trkpt lat="46.6573559" lon="12.4174488"><ele>1634.5</ele><time>2026-04-07T14:53:51.578Z</time></trkpt><trkpt lat="46.6573203" lon="12.4175511"><ele>1634.6666666666665</ele><time>2026-04-07T14:53:53.578Z</time></trkpt><trkpt lat="46.6572794" lon="12.4176477"><ele>1634.8333333333333</ele><time>2026-04-07T14:53:55.577Z</time></trkpt><trkpt lat="46.6572333" lon="12.4177419"><ele>1635.0</ele><time>2026-04-07T14:53:57.578Z</time></trkpt><trkpt lat="46.6571922" lon="12.4178403"><ele>1635.0</ele><time>2026-04-07T14:53:59.576Z</time></trkpt><trkpt lat="46.6571466" lon="12.4179358"><ele>1635.0</ele><time>2026-04-07T14:54:01.578Z</time></trkpt><trkpt lat="46.657096" lon="12.4180292"><ele>1635.0</ele><time>2026-04-07T14:54:03.577Z</time></trkpt><trkpt lat="46.6570474" lon="12.4181241"><ele>1635.0</ele><time>2026-04-07T14:54:05.578Z</time></trkpt><trkpt lat="46.6569939" lon="12.4182112"><ele>1635.0</ele><time>2026-04-07T14:54:07.578Z</time></trkpt><trkpt lat="46.6569373" lon="12.4182911"><ele>1635.0</ele><time>2026-04-07T14:54:09.578Z</time></trkpt><trkpt lat="46.6568791" lon="12.4183703"><ele>1635.0</ele><time>2026-04-07T14:54:11.578Z</time></trkpt><trkpt lat="46.6568276" lon="12.4184585"><ele>1635.0</ele><time>2026-04-07T14:54:13.578Z</time></trkpt><trkpt lat="46.6567782" lon="12.418545"><ele>1635.0</ele><time>2026-04-07T14:54:15.578Z</time></trkpt><trkpt lat="46.6567223" lon="12.4186499"><ele>1635.0</ele><time>2026-04-07T14:54:18.578Z</time></trkpt><trkpt lat="46.6566805" lon="12.4187203"><ele>1635.0</ele><time>2026-04-07T14:54:19.578Z</time></trkpt><trkpt lat="46.6566166" lon="12.4188123"><ele>1635.0</ele><time>2026-04-07T14:54:21.577Z</time></trkpt><trkpt lat="46.6565656" lon="12.4189072"><ele>1636.0</ele><time>2026-04-07T14:54:23.577Z</time></trkpt><trkpt lat="46.656518" lon="12.4190063"><ele>1637.0</ele><time>2026-04-07T14:54:25.578Z</time></trkpt><trkpt lat="46.6564748" lon="12.4191045"><ele>1638.0</ele><time>2026-04-07T14:54:27.577Z</time></trkpt><trkpt lat="46.6564257" lon="12.4192039"><ele>1639.0</ele><time>2026-04-07T14:54:29.578Z</time></trkpt><trkpt lat="46.65637" lon="12.4192987"><ele>1640.0</ele><time>2026-04-07T14:54:31.576Z</time></trkpt><trkpt lat="46.6563172" lon="12.4194006"><ele>1641.0</ele><time>2026-04-07T14:54:33.578Z</time></trkpt><trkpt lat="46.6562645" lon="12.4195051"><ele>1641.0</ele><time>2026-04-07T14:54:35.578Z</time></trkpt><trkpt lat="46.6562122" lon="12.4196092"><ele>1641.0</ele><time>2026-04-07T14:54:37.577Z</time></trkpt><trkpt lat="46.6561571" lon="12.4197175"><ele>1641.0</ele><time>2026-04-07T14:54:39.577Z</time></trkpt><trkpt lat="46.6561012" lon="12.4198234"><ele>1641.0</ele><time>2026-04-07T14:54:41.577Z</time></trkpt><trkpt lat="46.6560421" lon="12.4199347"><ele>1641.0</ele><time>2026-04-07T14:54:43.577Z</time></trkpt><trkpt lat="46.6559829" lon="12.4200438"><ele>1641.0</ele><time>2026-04-07T14:54:45.578Z</time></trkpt><trkpt lat="46.6559247" lon="12.4201547"><ele>1641.0</ele><time>2026-04-07T14:54:47.578Z</time></trkpt><trkpt lat="46.6558631" lon="12.4202649"><ele>1641.0</ele><time>2026-04-07T14:54:49.578Z</time></trkpt><trkpt lat="46.6558035" lon="12.4203765"><ele>1641.0</ele><time>2026-04-07T14:54:51.577Z</time></trkpt><trkpt lat="46.6557429" lon="12.4204844"><ele>1641.0</ele><time>2026-04-07T14:54:53.578Z</time></trkpt><trkpt lat="46.6556824" lon="12.4205937"><ele>1641.0</ele><time>2026-04-07T14:54:55.577Z</time></trkpt><trkpt lat="46.6556128" lon="12.4207053"><ele>1641.0</ele><time>2026-04-07T14:54:57.577Z</time></trkpt><trkpt lat="46.655533" lon="12.4208142"><ele>1641.0</ele><time>2026-04-07T14:54:59.577Z</time></trkpt><trkpt lat="46.6554513" lon="12.42093"><ele>1641.0</ele><time>2026-04-07T14:55:01.578Z</time></trkpt><trkpt lat="46.6553658" lon="12.4210452"><ele>1641.0</ele><time>2026-04-07T14:55:03.578Z</time></trkpt><trkpt lat="46.6552775" lon="12.4211662"><ele>1640.3333333333333</ele><time>2026-04-07T14:55:05.578Z</time></trkpt><trkpt lat="46.6551849" lon="12.4212827"><ele>1639.6666666666665</ele><time>2026-04-07T14:55:07.577Z</time></trkpt><trkpt lat="46.6551311" lon="12.4213373"><ele>1639.0</ele><time>2026-04-07T14:55:08.577Z</time></trkpt><trkpt lat="46.6550793" lon="12.4213933"><ele>1638.3333333333333</ele><time>2026-04-07T14:55:09.578Z</time></trkpt><trkpt lat="46.6550269" lon="12.4214525"><ele>1637.6666666666665</ele><time>2026-04-07T14:55:10.578Z</time></trkpt><trkpt lat="46.6549762" lon="12.4215129"><ele>1637.0</ele><time>2026-04-07T14:55:11.578Z</time></trkpt><trkpt lat="46.6549242" lon="12.4215709"><ele>1637.0</ele><time>2026-04-07T14:55:12.577Z</time></trkpt><trkpt lat="46.6548697" lon="12.4216318"><ele>1637.0</ele><time>2026-04-07T14:55:13.577Z</time></trkpt><trkpt lat="46.6548134" lon="12.421692"><ele>1637.0</ele><time>2026-04-07T14:55:14.578Z</time></trkpt><trkpt lat="46.6547581" lon="12.421755"><ele>1637.0</ele><time>2026-04-07T14:55:15.578Z</time></trkpt><trkpt lat="46.654706" lon="12.421821"><ele>1637.0</ele><time>2026-04-07T14:55:16.578Z</time></trkpt><trkpt lat="46.6546494" lon="12.4218843"><ele>1637.0</ele><time>2026-04-07T14:55:17.577Z</time></trkpt><trkpt lat="46.6545916" lon="12.4219465"><ele>1637.0</ele><time>2026-04-07T14:55:18.578Z</time></trkpt><trkpt lat="46.654534" lon="12.4220094"><ele>1637.0</ele><time>2026-04-07T14:55:19.578Z</time></trkpt><trkpt lat="46.6544768" lon="12.422076"><ele>1637.0</ele><time>2026-04-07T14:55:20.578Z</time></trkpt><trkpt lat="46.6544215" lon="12.4221414"><ele>1637.0</ele><time>2026-04-07T14:55:21.577Z</time></trkpt><trkpt lat="46.6543631" lon="12.4222046"><ele>1637.0</ele><time>2026-04-07T14:55:22.577Z</time></trkpt><trkpt lat="46.654305" lon="12.4222682"><ele>1637.0</ele><time>2026-04-07T14:55:23.577Z</time></trkpt><trkpt lat="46.6542458" lon="12.4223331"><ele>1637.0</ele><time>2026-04-07T14:55:24.578Z</time></trkpt><trkpt lat="46.6541881" lon="12.4224011"><ele>1637.0</ele><time>2026-04-07T14:55:25.577Z</time></trkpt><trkpt lat="46.654129" lon="12.4224673"><ele>1635.4999999999998</ele><time>2026-04-07T14:55:26.578Z</time></trkpt><trkpt lat="46.6540711" lon="12.4225339"><ele>1634.0</ele><time>2026-04-07T14:55:27.578Z</time></trkpt><trkpt lat="46.6540133" lon="12.422609"><ele>1632.5</ele><time>2026-04-07T14:55:28.578Z</time></trkpt><trkpt lat="46.6539551" lon="12.4226863"><ele>1631.0</ele><time>2026-04-07T14:55:29.577Z</time></trkpt><trkpt lat="46.6538984" lon="12.4227671"><ele>1629.4999999999998</ele><time>2026-04-07T14:55:30.577Z</time></trkpt><trkpt lat="46.6538402" lon="12.4228549"><ele>1628.0</ele><time>2026-04-07T14:55:31.578Z</time></trkpt><trkpt lat="46.6537819" lon="12.4229441"><ele>1628.4</ele><time>2026-04-07T14:55:32.578Z</time></trkpt><trkpt lat="46.6537207" lon="12.423032"><ele>1628.8000000000002</ele><time>2026-04-07T14:55:33.578Z</time></trkpt><trkpt lat="46.6536574" lon="12.4231217"><ele>1629.2</ele><time>2026-04-07T14:55:34.578Z</time></trkpt><trkpt lat="46.6535906" lon="12.4232098"><ele>1629.6</ele><time>2026-04-07T14:55:35.576Z</time></trkpt><trkpt lat="46.6535212" lon="12.4232973"><ele>1630.0</ele><time>2026-04-07T14:55:36.578Z</time></trkpt><trkpt lat="46.6534488" lon="12.4233836"><ele>1629.2</ele><time>2026-04-07T14:55:37.576Z</time></trkpt><trkpt lat="46.6533732" lon="12.4234665"><ele>1628.4</ele><time>2026-04-07T14:55:38.578Z</time></trkpt><trkpt lat="46.6532957" lon="12.4235458"><ele>1627.6</ele><time>2026-04-07T14:55:39.578Z</time></trkpt><trkpt lat="46.6532151" lon="12.4236231"><ele>1626.8</ele><time>2026-04-07T14:55:40.578Z</time></trkpt><trkpt lat="46.6531338" lon="12.4236942"><ele>1626.0</ele><time>2026-04-07T14:55:41.577Z</time></trkpt><trkpt lat="46.6530516" lon="12.4237651"><ele>1624.8</ele><time>2026-04-07T14:55:42.577Z</time></trkpt><trkpt lat="46.6529696" lon="12.4238371"><ele>1623.6</ele><time>2026-04-07T14:55:43.577Z</time></trkpt><trkpt lat="46.6528829" lon="12.4239073"><ele>1622.4</ele><time>2026-04-07T14:55:44.577Z</time></trkpt><trkpt lat="46.6527958" lon="12.4239773"><ele>1621.2</ele><time>2026-04-07T14:55:45.578Z</time></trkpt><trkpt lat="46.6527045" lon="12.4240492"><ele>1620.0</ele><time>2026-04-07T14:55:46.577Z</time></trkpt><trkpt lat="46.6526123" lon="12.4241191"><ele>1619.6</ele><time>2026-04-07T14:55:47.577Z</time></trkpt><trkpt lat="46.6525229" lon="12.4241936"><ele>1619.2</ele><time>2026-04-07T14:55:48.578Z</time></trkpt><trkpt lat="46.6524335" lon="12.4242695"><ele>1618.8000000000002</ele><time>2026-04-07T14:55:49.578Z</time></trkpt><trkpt lat="46.652343" lon="12.4243486"><ele>1618.4</ele><time>2026-04-07T14:55:50.578Z</time></trkpt><trkpt lat="46.6522555" lon="12.4244342"><ele>1618.0</ele><time>2026-04-07T14:55:51.577Z</time></trkpt><trkpt lat="46.6521703" lon="12.4245296"><ele>1618.0</ele><time>2026-04-07T14:55:52.578Z</time></trkpt><trkpt lat="46.6520921" lon="12.4246319"><ele>1618.0</ele><time>2026-04-07T14:55:53.578Z</time></trkpt><trkpt lat="46.6520192" lon="12.4247447"><ele>1618.0</ele><time>2026-04-07T14:55:54.578Z</time></trkpt><trkpt lat="46.6519512" lon="12.4248622"><ele>1618.0</ele><time>2026-04-07T14:55:55.577Z</time></trkpt><trkpt lat="46.6518877" lon="12.4249838"><ele>1618.0</ele><time>2026-04-07T14:55:56.578Z</time></trkpt><trkpt lat="46.6518296" lon="12.4251114"><ele>1617.6000000000001</ele><time>2026-04-07T14:55:57.578Z</time></trkpt><trkpt lat="46.651778" lon="12.4252495"><ele>1617.2</ele><time>2026-04-07T14:55:58.576Z</time></trkpt><trkpt lat="46.6517335" lon="12.4253947"><ele>1616.8</ele><time>2026-04-07T14:55:59.578Z</time></trkpt><trkpt lat="46.6516936" lon="12.4255424"><ele>1616.4</ele><time>2026-04-07T14:56:00.578Z</time></trkpt><trkpt lat="46.6516528" lon="12.4256948"><ele>1616.0</ele><time>2026-04-07T14:56:01.578Z</time></trkpt><trkpt lat="46.6516069" lon="12.4258426"><ele>1615.4</ele><time>2026-04-07T14:56:02.578Z</time></trkpt><trkpt lat="46.6515559" lon="12.4259853"><ele>1614.8</ele><time>2026-04-07T14:56:03.576Z</time></trkpt><trkpt lat="46.6514961" lon="12.4261226"><ele>1614.2</ele><time>2026-04-07T14:56:04.577Z</time></trkpt><trkpt lat="46.6514267" lon="12.4262503"><ele>1613.6000000000001</ele><time>2026-04-07T14:56:05.577Z</time></trkpt><trkpt lat="46.6513491" lon="12.4263718"><ele>1613.0</ele><time>2026-04-07T14:56:06.578Z</time></trkpt><trkpt lat="46.6512659" lon="12.4264838"><ele>1614.5</ele><time>2026-04-07T14:56:07.578Z</time></trkpt><trkpt lat="46.6511769" lon="12.4265895"><ele>1616.0</ele><time>2026-04-07T14:56:08.578Z</time></trkpt><trkpt lat="46.651086" lon="12.4266934"><ele>1617.5</ele><time>2026-04-07T14:56:09.578Z</time></trkpt><trkpt lat="46.6509952" lon="12.4267953"><ele>1619.0</ele><time>2026-04-07T14:56:10.578Z</time></trkpt><trkpt lat="46.6509096" lon="12.4269004"><ele>1617.4</ele><time>2026-04-07T14:56:11.577Z</time></trkpt><trkpt lat="46.6508214" lon="12.426999"><ele>1615.8000000000002</ele><time>2026-04-07T14:56:12.578Z</time></trkpt><trkpt lat="46.6507338" lon="12.4270975"><ele>1614.1999999999998</ele><time>2026-04-07T14:56:13.578Z</time></trkpt><trkpt lat="46.6506461" lon="12.4271951"><ele>1612.6</ele><time>2026-04-07T14:56:14.577Z</time></trkpt><trkpt lat="46.6505572" lon="12.4272891"><ele>1611.0</ele><time>2026-04-07T14:56:15.578Z</time></trkpt><trkpt lat="46.6504692" lon="12.4273849"><ele>1611.0</ele><time>2026-04-07T14:56:16.578Z</time></trkpt><trkpt lat="46.6503821" lon="12.4274828"><ele>1611.0</ele><time>2026-04-07T14:56:17.577Z</time></trkpt><trkpt lat="46.6502935" lon="12.427582"><ele>1611.0</ele><time>2026-04-07T14:56:18.578Z</time></trkpt><trkpt lat="46.6502032" lon="12.4276795"><ele>1611.0</ele><time>2026-04-07T14:56:19.578Z</time></trkpt><trkpt lat="46.6501132" lon="12.42778"><ele>1611.0</ele><time>2026-04-07T14:56:20.578Z</time></trkpt><trkpt lat="46.6500242" lon="12.4278769"><ele>1609.8</ele><time>2026-04-07T14:56:21.578Z</time></trkpt><trkpt lat="46.6499357" lon="12.4279728"><ele>1608.6</ele><time>2026-04-07T14:56:22.577Z</time></trkpt><trkpt lat="46.6498548" lon="12.4280776"><ele>1607.4</ele><time>2026-04-07T14:56:23.578Z</time></trkpt><trkpt lat="46.6497867" lon="12.4281982"><ele>1606.2</ele><time>2026-04-07T14:56:24.577Z</time></trkpt><trkpt lat="46.6497366" lon="12.4283359"><ele>1605.0</ele><time>2026-04-07T14:56:25.578Z</time></trkpt><trkpt lat="46.6497012" lon="12.4284832"><ele>1605.0</ele><time>2026-04-07T14:56:26.578Z</time></trkpt><trkpt lat="46.6496826" lon="12.4286373"><ele>1605.0</ele><time>2026-04-07T14:56:27.578Z</time></trkpt><trkpt lat="46.6496729" lon="12.4287929"><ele>1605.0</ele><time>2026-04-07T14:56:28.578Z</time></trkpt><trkpt lat="46.6496676" lon="12.4289502"><ele>1605.0</ele><time>2026-04-07T14:56:29.578Z</time></trkpt><trkpt lat="46.6496635" lon="12.4291061"><ele>1605.0</ele><time>2026-04-07T14:56:30.578Z</time></trkpt><trkpt lat="46.6496581" lon="12.4292635"><ele>1605.0</ele><time>2026-04-07T14:56:31.578Z</time></trkpt><trkpt lat="46.6496599" lon="12.4294194"><ele>1605.0</ele><time>2026-04-07T14:56:32.577Z</time></trkpt><trkpt lat="46.6496748" lon="12.4295706"><ele>1605.0</ele><time>2026-04-07T14:56:33.578Z</time></trkpt><trkpt lat="46.6497086" lon="12.4297159"><ele>1605.0</ele><time>2026-04-07T14:56:34.578Z</time></trkpt><trkpt lat="46.649762" lon="12.4298486"><ele>1605.0</ele><time>2026-04-07T14:56:35.578Z</time></trkpt><trkpt lat="46.6498261" lon="12.4299645"><ele>1603.4</ele><time>2026-04-07T14:56:36.576Z</time></trkpt><trkpt lat="46.6499039" lon="12.4300597"><ele>1601.8</ele><time>2026-04-07T14:56:37.577Z</time></trkpt><trkpt lat="46.6499898" lon="12.4301348"><ele>1600.1999999999998</ele><time>2026-04-07T14:56:38.577Z</time></trkpt><trkpt lat="46.6500838" lon="12.4301758"><ele>1598.6</ele><time>2026-04-07T14:56:39.577Z</time></trkpt><trkpt lat="46.6501819" lon="12.430177"><ele>1597.0</ele><time>2026-04-07T14:56:40.577Z</time></trkpt><trkpt lat="46.6502822" lon="12.4301538"><ele>1598.3999999999999</ele><time>2026-04-07T14:56:41.578Z</time></trkpt><trkpt lat="46.6503808" lon="12.4301177"><ele>1599.8</ele><time>2026-04-07T14:56:42.578Z</time></trkpt><trkpt lat="46.6504811" lon="12.430092"><ele>1601.2</ele><time>2026-04-07T14:56:43.578Z</time></trkpt><trkpt lat="46.6505847" lon="12.4300886"><ele>1602.6</ele><time>2026-04-07T14:56:44.578Z</time></trkpt><trkpt lat="46.650688" lon="12.4301096"><ele>1604.0</ele><time>2026-04-07T14:56:45.578Z</time></trkpt><trkpt lat="46.6507883" lon="12.4301501"><ele>1604.0</ele><time>2026-04-07T14:56:46.577Z</time></trkpt><trkpt lat="46.6508844" lon="12.4302118"><ele>1604.0</ele><time>2026-04-07T14:56:47.578Z</time></trkpt><trkpt lat="46.6509713" lon="12.4303007"><ele>1604.0</ele><time>2026-04-07T14:56:48.576Z</time></trkpt><trkpt lat="46.6510542" lon="12.430406"><ele>1604.0</ele><time>2026-04-07T14:56:49.577Z</time></trkpt><trkpt lat="46.6511324" lon="12.4305184"><ele>1604.0</ele><time>2026-04-07T14:56:50.577Z</time></trkpt><trkpt lat="46.6512073" lon="12.4306309"><ele>1603.8000000000002</ele><time>2026-04-07T14:56:51.577Z</time></trkpt><trkpt lat="46.651285" lon="12.4307356"><ele>1603.6000000000001</ele><time>2026-04-07T14:56:52.577Z</time></trkpt><trkpt lat="46.6513649" lon="12.4308392"><ele>1603.4</ele><time>2026-04-07T14:56:53.578Z</time></trkpt><trkpt lat="46.6514351" lon="12.4309549"><ele>1603.2</ele><time>2026-04-07T14:56:54.578Z</time></trkpt><trkpt lat="46.651503" lon="12.4310933"><ele>1603.0</ele><time>2026-04-07T14:56:55.578Z</time></trkpt><trkpt lat="46.6515073" lon="12.4312493"><ele>1601.6000000000001</ele><time>2026-04-07T14:56:56.578Z</time></trkpt><trkpt lat="46.6515081" lon="12.4314069"><ele>1600.2</ele><time>2026-04-07T14:56:57.577Z</time></trkpt><trkpt lat="46.6514998" lon="12.4315616"><ele>1598.8</ele><time>2026-04-07T14:56:58.578Z</time></trkpt><trkpt lat="46.6514937" lon="12.4317193"><ele>1597.4</ele><time>2026-04-07T14:56:59.578Z</time></trkpt><trkpt lat="46.6514887" lon="12.4318771"><ele>1596.0</ele><time>2026-04-07T14:57:00.577Z</time></trkpt><trkpt lat="46.6514841" lon="12.4320355"><ele>1596.1999999999998</ele><time>2026-04-07T14:57:01.577Z</time></trkpt><trkpt lat="46.6514788" lon="12.432195"><ele>1596.3999999999999</ele><time>2026-04-07T14:57:02.577Z</time></trkpt><trkpt lat="46.6514647" lon="12.4323504"><ele>1596.6</ele><time>2026-04-07T14:57:03.578Z</time></trkpt><trkpt lat="46.651453" lon="12.432505"><ele>1596.8</ele><time>2026-04-07T14:57:04.578Z</time></trkpt><trkpt lat="46.6514545" lon="12.4326552"><ele>1597.0</ele><time>2026-04-07T14:57:05.577Z</time></trkpt><trkpt lat="46.6514737" lon="12.432802"><ele>1597.0</ele><time>2026-04-07T14:57:06.577Z</time></trkpt><trkpt lat="46.6514993" lon="12.432951"><ele>1597.0</ele><time>2026-04-07T14:57:07.578Z</time></trkpt><trkpt lat="46.6515243" lon="12.4330994"><ele>1597.0</ele><time>2026-04-07T14:57:08.577Z</time></trkpt><trkpt lat="46.6515422" lon="12.4332508"><ele>1597.0</ele><time>2026-04-07T14:57:09.577Z</time></trkpt><trkpt lat="46.651542" lon="12.4333982"><ele>1597.0</ele><time>2026-04-07T14:57:10.578Z</time></trkpt><trkpt lat="46.6515305" lon="12.4335478"><ele>1596.8</ele><time>2026-04-07T14:57:11.578Z</time></trkpt><trkpt lat="46.651522" lon="12.433694"><ele>1596.6</ele><time>2026-04-07T14:57:12.578Z</time></trkpt><trkpt lat="46.6515322" lon="12.4338384"><ele>1596.3999999999999</ele><time>2026-04-07T14:57:13.578Z</time></trkpt><trkpt lat="46.6515648" lon="12.4339739"><ele>1596.1999999999998</ele><time>2026-04-07T14:57:14.577Z</time></trkpt><trkpt lat="46.6516193" lon="12.4340974"><ele>1596.0</ele><time>2026-04-07T14:57:15.577Z</time></trkpt><trkpt lat="46.6516921" lon="12.4342021"><ele>1594.1999999999998</ele><time>2026-04-07T14:57:16.577Z</time></trkpt><trkpt lat="46.6517778" lon="12.4342839"><ele>1592.3999999999999</ele><time>2026-04-07T14:57:17.578Z</time></trkpt><trkpt lat="46.6518686" lon="12.4343521"><ele>1590.6</ele><time>2026-04-07T14:57:18.577Z</time></trkpt><trkpt lat="46.651957" lon="12.4344375"><ele>1588.8</ele><time>2026-04-07T14:57:19.577Z</time></trkpt><trkpt lat="46.6520283" lon="12.4345549"><ele>1587.0</ele><time>2026-04-07T14:57:20.576Z</time></trkpt><trkpt lat="46.6520778" lon="12.434692"><ele>1592.1999999999998</ele><time>2026-04-07T14:57:21.577Z</time></trkpt><trkpt lat="46.6521055" lon="12.4348428"><ele>1597.4</ele><time>2026-04-07T14:57:22.578Z</time></trkpt><trkpt lat="46.6521142" lon="12.434995"><ele>1602.6</ele><time>2026-04-07T14:57:23.579Z</time></trkpt><trkpt lat="46.6521168" lon="12.4351492"><ele>1607.8000000000002</ele><time>2026-04-07T14:57:24.578Z</time></trkpt><trkpt lat="46.6521186" lon="12.4353044"><ele>1613.0</ele><time>2026-04-07T14:57:25.578Z</time></trkpt><trkpt lat="46.6521171" lon="12.4354602"><ele>1613.4</ele><time>2026-04-07T14:57:26.578Z</time></trkpt><trkpt lat="46.6521164" lon="12.4356134"><ele>1613.8000000000002</ele><time>2026-04-07T14:57:27.579Z</time></trkpt><trkpt lat="46.6521147" lon="12.4357694"><ele>1614.2</ele><time>2026-04-07T14:57:28.579Z</time></trkpt><trkpt lat="46.652115" lon="12.4359254"><ele>1614.6</ele><time>2026-04-07T14:57:29.579Z</time></trkpt><trkpt lat="46.6521165" lon="12.4360848"><ele>1615.0</ele><time>2026-04-07T14:57:30.577Z</time></trkpt><trkpt lat="46.6521216" lon="12.4362423"><ele>1615.8</ele><time>2026-04-07T14:57:31.579Z</time></trkpt><trkpt lat="46.652125" lon="12.4363971"><ele>1616.6</ele><time>2026-04-07T14:57:32.579Z</time></trkpt><trkpt lat="46.6521257" lon="12.43655"><ele>1617.4</ele><time>2026-04-07T14:57:33.579Z</time></trkpt><trkpt lat="46.652117" lon="12.4367056"><ele>1618.2</ele><time>2026-04-07T14:57:34.579Z</time></trkpt><trkpt lat="46.6520986" lon="12.4368588"><ele>1619.0</ele><time>2026-04-07T14:57:35.579Z</time></trkpt><trkpt lat="46.652073" lon="12.437008"><ele>1617.0</ele><time>2026-04-07T14:57:36.579Z</time></trkpt><trkpt lat="46.6520365" lon="12.437153"><ele>1615.0</ele><time>2026-04-07T14:57:37.578Z</time></trkpt><trkpt lat="46.6519944" lon="12.4372958"><ele>1613.0</ele><time>2026-04-07T14:57:38.577Z</time></trkpt><trkpt lat="46.6519515" lon="12.4374362"><ele>1611.0</ele><time>2026-04-07T14:57:39.579Z</time></trkpt><trkpt lat="46.6519063" lon="12.4375766"><ele>1609.0</ele><time>2026-04-07T14:57:40.579Z</time></trkpt><trkpt lat="46.6518546" lon="12.4377085"><ele>1601.6</ele><time>2026-04-07T14:57:41.579Z</time></trkpt><trkpt lat="46.6518063" lon="12.4378425"><ele>1594.2</ele><time>2026-04-07T14:57:42.577Z</time></trkpt><trkpt lat="46.6517714" lon="12.4379832"><ele>1586.8</ele><time>2026-04-07T14:57:43.578Z</time></trkpt><trkpt lat="46.6517658" lon="12.4381275"><ele>1579.3999999999999</ele><time>2026-04-07T14:57:44.579Z</time></trkpt><trkpt lat="46.651789" lon="12.438268"><ele>1572.0</ele><time>2026-04-07T14:57:45.578Z</time></trkpt><trkpt lat="46.6518433" lon="12.4383896"><ele>1572.0</ele><time>2026-04-07T14:57:46.579Z</time></trkpt><trkpt lat="46.6519139" lon="12.4384916"><ele>1572.0</ele><time>2026-04-07T14:57:47.579Z</time></trkpt><trkpt lat="46.6519895" lon="12.438586"><ele>1572.0</ele><time>2026-04-07T14:57:48.578Z</time></trkpt><trkpt lat="46.6520628" lon="12.4386831"><ele>1572.0</ele><time>2026-04-07T14:57:49.579Z</time></trkpt><trkpt lat="46.6521363" lon="12.4387751"><ele>1572.0</ele><time>2026-04-07T14:57:50.578Z</time></trkpt><trkpt lat="46.652207" lon="12.4388657"><ele>1573.6</ele><time>2026-04-07T14:57:51.579Z</time></trkpt><trkpt lat="46.6522779" lon="12.4389583"><ele>1575.1999999999998</ele><time>2026-04-07T14:57:52.578Z</time></trkpt><trkpt lat="46.6523416" lon="12.4390627"><ele>1576.8</ele><time>2026-04-07T14:57:53.579Z</time></trkpt><trkpt lat="46.6523918" lon="12.4391836"><ele>1578.4</ele><time>2026-04-07T14:57:54.578Z</time></trkpt><trkpt lat="46.6524281" lon="12.4393126"><ele>1580.0</ele><time>2026-04-07T14:57:55.579Z</time></trkpt><trkpt lat="46.6524543" lon="12.4394418"><ele>1580.0</ele><time>2026-04-07T14:57:56.579Z</time></trkpt><trkpt lat="46.6524789" lon="12.4395696"><ele>1580.0</ele><time>2026-04-07T14:57:57.579Z</time></trkpt><trkpt lat="46.6525174" lon="12.439696"><ele>1580.0</ele><time>2026-04-07T14:57:58.579Z</time></trkpt><trkpt lat="46.6525634" lon="12.4398145"><ele>1580.0</ele><time>2026-04-07T14:57:59.579Z</time></trkpt><trkpt lat="46.6526232" lon="12.4399243"><ele>1580.0</ele><time>2026-04-07T14:58:00.578Z</time></trkpt><trkpt lat="46.6526942" lon="12.44002"><ele>1580.2</ele><time>2026-04-07T14:58:01.579Z</time></trkpt><trkpt lat="46.6527747" lon="12.4400991"><ele>1580.4</ele><time>2026-04-07T14:58:02.579Z</time></trkpt><trkpt lat="46.6528644" lon="12.4401519"><ele>1580.6</ele><time>2026-04-07T14:58:03.579Z</time></trkpt><trkpt lat="46.6529595" lon="12.4401948"><ele>1580.8</ele><time>2026-04-07T14:58:04.579Z</time></trkpt><trkpt lat="46.6530577" lon="12.4402259"><ele>1581.0</ele><time>2026-04-07T14:58:05.579Z</time></trkpt><trkpt lat="46.6531629" lon="12.4402612"><ele>1581.0</ele><time>2026-04-07T14:58:06.578Z</time></trkpt><trkpt lat="46.6532682" lon="12.4402936"><ele>1581.0</ele><time>2026-04-07T14:58:07.578Z</time></trkpt><trkpt lat="46.6533742" lon="12.440318"><ele>1581.0</ele><time>2026-04-07T14:58:08.579Z</time></trkpt><trkpt lat="46.6534838" lon="12.4403446"><ele>1581.0</ele><time>2026-04-07T14:58:09.578Z</time></trkpt><trkpt lat="46.6535943" lon="12.4403738"><ele>1581.0</ele><time>2026-04-07T14:58:10.578Z</time></trkpt><trkpt lat="46.6537002" lon="12.4404244"><ele>1582.6</ele><time>2026-04-07T14:58:11.578Z</time></trkpt><trkpt lat="46.6537889" lon="12.4405174"><ele>1584.1999999999998</ele><time>2026-04-07T14:58:12.579Z</time></trkpt><trkpt lat="46.6538454" lon="12.440651"><ele>1585.8000000000002</ele><time>2026-04-07T14:58:13.579Z</time></trkpt><trkpt lat="46.6538762" lon="12.4407947"><ele>1587.4</ele><time>2026-04-07T14:58:14.579Z</time></trkpt><trkpt lat="46.6538819" lon="12.4409374"><ele>1589.0</ele><time>2026-04-07T14:58:15.579Z</time></trkpt><trkpt lat="46.6538552" lon="12.441083"><ele>1589.0</ele><time>2026-04-07T14:58:16.577Z</time></trkpt><trkpt lat="46.6538024" lon="12.4412146"><ele>1589.0</ele><time>2026-04-07T14:58:17.578Z</time></trkpt><trkpt lat="46.6537348" lon="12.4413367"><ele>1589.0</ele><time>2026-04-07T14:58:18.578Z</time></trkpt><trkpt lat="46.6536612" lon="12.4414618"><ele>1589.0</ele><time>2026-04-07T14:58:19.579Z</time></trkpt><trkpt lat="46.6535799" lon="12.441583"><ele>1589.0</ele><time>2026-04-07T14:58:20.578Z</time></trkpt><trkpt lat="46.6534891" lon="12.4417008"><ele>1581.75</ele><time>2026-04-07T14:58:21.578Z</time></trkpt><trkpt lat="46.6533955" lon="12.4418155"><ele>1574.5</ele><time>2026-04-07T14:58:22.579Z</time></trkpt><trkpt lat="46.6533198" lon="12.441952"><ele>1567.25</ele><time>2026-04-07T14:58:23.579Z</time></trkpt><trkpt lat="46.6532769" lon="12.4421113"><ele>1560.0</ele><time>2026-04-07T14:58:24.578Z</time></trkpt><trkpt lat="46.6532603" lon="12.4422783"><ele>1560.0</ele><time>2026-04-07T14:58:25.578Z</time></trkpt><trkpt lat="46.6532633" lon="12.4424451"><ele>1560.0</ele><time>2026-04-07T14:58:26.579Z</time></trkpt><trkpt lat="46.6532725" lon="12.4426084"><ele>1560.0</ele><time>2026-04-07T14:58:27.579Z</time></trkpt><trkpt lat="46.6532842" lon="12.4427722"><ele>1560.0</ele><time>2026-04-07T14:58:28.579Z</time></trkpt><trkpt lat="46.6533076" lon="12.4429351"><ele>1558.5</ele><time>2026-04-07T14:58:29.579Z</time></trkpt><trkpt lat="46.6533412" lon="12.4430963"><ele>1557.0</ele><time>2026-04-07T14:58:30.577Z</time></trkpt><trkpt lat="46.6533809" lon="12.4432503"><ele>1555.5</ele><time>2026-04-07T14:58:31.578Z</time></trkpt><trkpt lat="46.6534195" lon="12.443403"><ele>1554.0</ele><time>2026-04-07T14:58:32.579Z</time></trkpt><trkpt lat="46.6534519" lon="12.443559"><ele>1554.0</ele><time>2026-04-07T14:58:33.579Z</time></trkpt><trkpt lat="46.653477" lon="12.4437191"><ele>1554.0</ele><time>2026-04-07T14:58:34.577Z</time></trkpt><trkpt lat="46.653503" lon="12.4438797"><ele>1554.0</ele><time>2026-04-07T14:58:35.579Z</time></trkpt><trkpt lat="46.6535422" lon="12.4440393"><ele>1554.0</ele><time>2026-04-07T14:58:36.579Z</time></trkpt><trkpt lat="46.653567" lon="12.4442028"><ele>1553.4</ele><time>2026-04-07T14:58:37.579Z</time></trkpt><trkpt lat="46.6535598" lon="12.4443672"><ele>1552.8000000000002</ele><time>2026-04-07T14:58:38.579Z</time></trkpt><trkpt lat="46.6535295" lon="12.4445257"><ele>1552.1999999999998</ele><time>2026-04-07T14:58:39.579Z</time></trkpt><trkpt lat="46.6534781" lon="12.444669"><ele>1551.6</ele><time>2026-04-07T14:58:40.578Z</time></trkpt><trkpt lat="46.6534194" lon="12.4448073"><ele>1551.0</ele><time>2026-04-07T14:58:41.578Z</time></trkpt><trkpt lat="46.6533707" lon="12.4449543"><ele>1551.0</ele><time>2026-04-07T14:58:42.578Z</time></trkpt><trkpt lat="46.6533282" lon="12.4451037"><ele>1551.0</ele><time>2026-04-07T14:58:43.578Z</time></trkpt><trkpt lat="46.6532909" lon="12.4452566"><ele>1551.0</ele><time>2026-04-07T14:58:44.579Z</time></trkpt><trkpt lat="46.6532496" lon="12.4454089"><ele>1551.0</ele><time>2026-04-07T14:58:45.579Z</time></trkpt><trkpt lat="46.6531993" lon="12.4455564"><ele>1551.0</ele><time>2026-04-07T14:58:46.579Z</time></trkpt><trkpt lat="46.65313" lon="12.4456869"><ele>1554.5</ele><time>2026-04-07T14:58:47.579Z</time></trkpt><trkpt lat="46.6530564" lon="12.4458096"><ele>1558.0</ele><time>2026-04-07T14:58:48.579Z</time></trkpt><trkpt lat="46.6529784" lon="12.4459316"><ele>1561.5</ele><time>2026-04-07T14:58:49.578Z</time></trkpt><trkpt lat="46.652901" lon="12.446052"><ele>1565.0</ele><time>2026-04-07T14:58:50.579Z</time></trkpt><trkpt lat="46.6528281" lon="12.4461824"><ele>1558.75</ele><time>2026-04-07T14:58:51.578Z</time></trkpt><trkpt lat="46.6527574" lon="12.4463195"><ele>1552.5</ele><time>2026-04-07T14:58:52.579Z</time></trkpt><trkpt lat="46.6526868" lon="12.4464526"><ele>1546.25</ele><time>2026-04-07T14:58:53.578Z</time></trkpt><trkpt lat="46.6526141" lon="12.4465885"><ele>1540.0</ele><time>2026-04-07T14:58:54.578Z</time></trkpt><trkpt lat="46.6525284" lon="12.4467106"><ele>1540.0</ele><time>2026-04-07T14:58:55.579Z</time></trkpt><trkpt lat="46.6524384" lon="12.4468323"><ele>1540.0</ele><time>2026-04-07T14:58:56.578Z</time></trkpt><trkpt lat="46.6523434" lon="12.4469285"><ele>1540.0</ele><time>2026-04-07T14:58:57.579Z</time></trkpt><trkpt lat="46.6522515" lon="12.4470326"><ele>1540.0</ele><time>2026-04-07T14:58:58.578Z</time></trkpt><trkpt lat="46.6521526" lon="12.447137"><ele>1537.0</ele><time>2026-04-07T14:58:59.579Z</time></trkpt><trkpt lat="46.6520538" lon="12.4472278"><ele>1534.0</ele><time>2026-04-07T14:59:00.579Z</time></trkpt><trkpt lat="46.6519463" lon="12.4473086"><ele>1531.0</ele><time>2026-04-07T14:59:01.578Z</time></trkpt><trkpt lat="46.6518369" lon="12.4473782"><ele>1528.0</ele><time>2026-04-07T14:59:02.579Z</time></trkpt><trkpt lat="46.6517232" lon="12.4474352"><ele>1528.0</ele><time>2026-04-07T14:59:03.579Z</time></trkpt><trkpt lat="46.65161" lon="12.4474832"><ele>1528.0</ele><time>2026-04-07T14:59:04.578Z</time></trkpt><trkpt lat="46.651498" lon="12.4475368"><ele>1528.0</ele><time>2026-04-07T14:59:05.579Z</time></trkpt><trkpt lat="46.6513872" lon="12.4475793"><ele>1528.0</ele><time>2026-04-07T14:59:06.579Z</time></trkpt><trkpt lat="46.651272" lon="12.4476016"><ele>1528.0</ele><time>2026-04-07T14:59:07.579Z</time></trkpt><trkpt lat="46.6511581" lon="12.4475899"><ele>1528.0</ele><time>2026-04-07T14:59:08.579Z</time></trkpt><trkpt lat="46.6510528" lon="12.4475366"><ele>1528.0</ele><time>2026-04-07T14:59:09.578Z</time></trkpt><trkpt lat="46.650968" lon="12.4474381"><ele>1528.0</ele><time>2026-04-07T14:59:10.579Z</time></trkpt><trkpt lat="46.6509094" lon="12.4473086"><ele>1528.0</ele><time>2026-04-07T14:59:11.578Z</time></trkpt><trkpt lat="46.6508821" lon="12.4471657"><ele>1526.4</ele><time>2026-04-07T14:59:12.579Z</time></trkpt><trkpt lat="46.6508766" lon="12.4470236"><ele>1524.8000000000002</ele><time>2026-04-07T14:59:13.579Z</time></trkpt><trkpt lat="46.6508846" lon="12.4468822"><ele>1523.2</ele><time>2026-04-07T14:59:14.578Z</time></trkpt><trkpt lat="46.6509021" lon="12.4467469"><ele>1521.6</ele><time>2026-04-07T14:59:15.579Z</time></trkpt><trkpt lat="46.6509134" lon="12.44661"><ele>1520.0</ele><time>2026-04-07T14:59:16.579Z</time></trkpt><trkpt lat="46.6508958" lon="12.4464779"><ele>1520.0</ele><time>2026-04-07T14:59:17.578Z</time></trkpt><trkpt lat="46.6508445" lon="12.4463699"><ele>1520.0</ele><time>2026-04-07T14:59:18.578Z</time></trkpt><trkpt lat="46.6507686" lon="12.4463077"><ele>1520.0</ele><time>2026-04-07T14:59:19.578Z</time></trkpt><trkpt lat="46.6506786" lon="12.4462938"><ele>1520.0</ele><time>2026-04-07T14:59:20.578Z</time></trkpt><trkpt lat="46.6505836" lon="12.4463233"><ele>1520.0</ele><time>2026-04-07T14:59:21.579Z</time></trkpt><trkpt lat="46.6504902" lon="12.4463771"><ele>1520.0</ele><time>2026-04-07T14:59:22.579Z</time></trkpt><trkpt lat="46.6504008" lon="12.446451"><ele>1520.0</ele><time>2026-04-07T14:59:23.579Z</time></trkpt><trkpt lat="46.6503112" lon="12.4465269"><ele>1520.0</ele><time>2026-04-07T14:59:24.578Z</time></trkpt><trkpt lat="46.6502222" lon="12.4466051"><ele>1520.0</ele><time>2026-04-07T14:59:25.579Z</time></trkpt><trkpt lat="46.650134" lon="12.4466966"><ele>1520.0</ele><time>2026-04-07T14:59:26.579Z</time></trkpt><trkpt lat="46.6500554" lon="12.4468062"><ele>1520.25</ele><time>2026-04-07T14:59:27.579Z</time></trkpt><trkpt lat="46.6499974" lon="12.446939"><ele>1520.5</ele><time>2026-04-07T14:59:28.579Z</time></trkpt><trkpt lat="46.6499454" lon="12.4470888"><ele>1520.75</ele><time>2026-04-07T14:59:29.578Z</time></trkpt><trkpt lat="46.6499016" lon="12.4472434"><ele>1521.0</ele><time>2026-04-07T14:59:30.578Z</time></trkpt><trkpt lat="46.649852" lon="12.4473982"><ele>1521.0</ele><time>2026-04-07T14:59:31.578Z</time></trkpt><trkpt lat="46.6498028" lon="12.4475564"><ele>1521.0</ele><time>2026-04-07T14:59:32.577Z</time></trkpt><trkpt lat="46.6497536" lon="12.4477142"><ele>1521.0</ele><time>2026-04-07T14:59:33.578Z</time></trkpt><trkpt lat="46.6497018" lon="12.4478686"><ele>1521.0</ele><time>2026-04-07T14:59:34.578Z</time></trkpt><trkpt lat="46.6496442" lon="12.4480233"><ele>1524.0</ele><time>2026-04-07T14:59:35.579Z</time></trkpt><trkpt lat="46.6495761" lon="12.4481674"><ele>1527.0</ele><time>2026-04-07T14:59:36.579Z</time></trkpt><trkpt lat="46.649495" lon="12.4482994"><ele>1530.0</ele><time>2026-04-07T14:59:37.579Z</time></trkpt><trkpt lat="46.6494018" lon="12.4484152"><ele>1533.0</ele><time>2026-04-07T14:59:38.579Z</time></trkpt><trkpt lat="46.6493058" lon="12.4485237"><ele>1529.75</ele><time>2026-04-07T14:59:39.579Z</time></trkpt><trkpt lat="46.6491955" lon="12.4486062"><ele>1526.5</ele><time>2026-04-07T14:59:40.579Z</time></trkpt><trkpt lat="46.6490799" lon="12.4486725"><ele>1523.25</ele><time>2026-04-07T14:59:41.579Z</time></trkpt><trkpt lat="46.6489603" lon="12.4487357"><ele>1520.0</ele><time>2026-04-07T14:59:42.579Z</time></trkpt><trkpt lat="46.6488466" lon="12.4488114"><ele>1520.0</ele><time>2026-04-07T14:59:43.579Z</time></trkpt><trkpt lat="46.6487422" lon="12.4489089"><ele>1520.0</ele><time>2026-04-07T14:59:44.579Z</time></trkpt><trkpt lat="46.6486439" lon="12.4490268"><ele>1520.0</ele><time>2026-04-07T14:59:45.579Z</time></trkpt><trkpt lat="46.6485535" lon="12.4491468"><ele>1520.0</ele><time>2026-04-07T14:59:46.579Z</time></trkpt><trkpt lat="46.6484626" lon="12.4492671"><ele>1517.75</ele><time>2026-04-07T14:59:47.579Z</time></trkpt><trkpt lat="46.6483751" lon="12.4493945"><ele>1515.5</ele><time>2026-04-07T14:59:48.579Z</time></trkpt><trkpt lat="46.6482888" lon="12.4495253"><ele>1513.25</ele><time>2026-04-07T14:59:49.579Z</time></trkpt><trkpt lat="46.6482032" lon="12.4496629"><ele>1511.0</ele><time>2026-04-07T14:59:50.578Z</time></trkpt><trkpt lat="46.6481187" lon="12.4498009"><ele>1511.0</ele><time>2026-04-07T14:59:51.579Z</time></trkpt><trkpt lat="46.6480298" lon="12.4499288"><ele>1511.0</ele><time>2026-04-07T14:59:52.579Z</time></trkpt><trkpt lat="46.6479293" lon="12.4500395"><ele>1511.0</ele><time>2026-04-07T14:59:53.579Z</time></trkpt><trkpt lat="46.6478265" lon="12.450148"><ele>1511.0</ele><time>2026-04-07T14:59:54.578Z</time></trkpt><trkpt lat="46.6477005" lon="12.450208"><ele>1510.0</ele><time>2026-04-07T14:59:55.579Z</time></trkpt><trkpt lat="46.6475929" lon="12.4502979"><ele>1509.0</ele><time>2026-04-07T14:59:56.579Z</time></trkpt><trkpt lat="46.647481" lon="12.4503924"><ele>1508.0</ele><time>2026-04-07T14:59:57.579Z</time></trkpt><trkpt lat="46.6473731" lon="12.450492"><ele>1507.0</ele><time>2026-04-07T14:59:58.579Z</time></trkpt><trkpt lat="46.6472646" lon="12.4505908"><ele>1507.0</ele><time>2026-04-07T14:59:59.578Z</time></trkpt><trkpt lat="46.6471504" lon="12.4506818"><ele>1507.0</ele><time>2026-04-07T15:00:00.578Z</time></trkpt><trkpt lat="46.6470356" lon="12.4507681"><ele>1507.0</ele><time>2026-04-07T15:00:01.579Z</time></trkpt><trkpt lat="46.6469177" lon="12.45085"><ele>1507.0</ele><time>2026-04-07T15:00:02.577Z</time></trkpt><trkpt lat="46.6468016" lon="12.450929"><ele>1499.75</ele><time>2026-04-07T15:00:03.579Z</time></trkpt><trkpt lat="46.646684" lon="12.4510046"><ele>1492.5</ele><time>2026-04-07T15:00:04.579Z</time></trkpt><trkpt lat="46.6465683" lon="12.4510837"><ele>1485.25</ele><time>2026-04-07T15:00:05.579Z</time></trkpt><trkpt lat="46.6464578" lon="12.4511725"><ele>1478.0</ele><time>2026-04-07T15:00:06.578Z</time></trkpt><trkpt lat="46.6463532" lon="12.4512776"><ele>1475.75</ele><time>2026-04-07T15:00:07.578Z</time></trkpt><trkpt lat="46.6462643" lon="12.451408"><ele>1473.5</ele><time>2026-04-07T15:00:08.578Z</time></trkpt><trkpt lat="46.6461956" lon="12.451565"><ele>1471.25</ele><time>2026-04-07T15:00:09.578Z</time></trkpt><trkpt lat="46.6461495" lon="12.4517328"><ele>1469.0</ele><time>2026-04-07T15:00:10.578Z</time></trkpt><trkpt lat="46.6461169" lon="12.4518786"><ele>1469.0</ele><time>2026-04-07T15:00:11.578Z</time></trkpt><trkpt lat="46.6460747" lon="12.4519874"><ele>1469.0</ele><time>2026-04-07T15:00:12.579Z</time></trkpt><trkpt lat="46.6460155" lon="12.4520527"><ele>1469.0</ele><time>2026-04-07T15:00:13.579Z</time></trkpt><trkpt lat="46.6459411" lon="12.4520576"><ele>1469.0</ele><time>2026-04-07T15:00:14.577Z</time></trkpt><trkpt lat="46.6458819" lon="12.4520002"><ele>1469.0</ele><time>2026-04-07T15:00:15.577Z</time></trkpt><trkpt lat="46.645857" lon="12.4519042"><ele>1469.0</ele><time>2026-04-07T15:00:16.579Z</time></trkpt><trkpt lat="46.6458815" lon="12.4517918"><ele>1469.0</ele><time>2026-04-07T15:00:17.578Z</time></trkpt><trkpt lat="46.6459246" lon="12.4516975"><ele>1469.0</ele><time>2026-04-07T15:00:18.579Z</time></trkpt><trkpt lat="46.6459788" lon="12.4516127"><ele>1469.0</ele><time>2026-04-07T15:00:19.577Z</time></trkpt><trkpt lat="46.646041" lon="12.451536"><ele>1469.0</ele><time>2026-04-07T15:00:20.578Z</time></trkpt><trkpt lat="46.6461065" lon="12.4514573"><ele>1469.0</ele><time>2026-04-07T15:00:21.578Z</time></trkpt><trkpt lat="46.6461724" lon="12.4513742"><ele>1469.0</ele><time>2026-04-07T15:00:22.578Z</time></trkpt><trkpt lat="46.6462365" lon="12.4512859"><ele>1470.5</ele><time>2026-04-07T15:00:23.579Z</time></trkpt><trkpt lat="46.6463042" lon="12.4512031"><ele>1472.0</ele><time>2026-04-07T15:00:24.579Z</time></trkpt><trkpt lat="46.6463751" lon="12.451129"><ele>1473.5</ele><time>2026-04-07T15:00:25.578Z</time></trkpt><trkpt lat="46.6464479" lon="12.4510621"><ele>1475.0</ele><time>2026-04-07T15:00:26.577Z</time></trkpt><trkpt lat="46.6465176" lon="12.4509875"><ele>1476.5</ele><time>2026-04-07T15:00:27.578Z</time></trkpt><trkpt lat="46.6465881" lon="12.4509119"><ele>1478.0</ele><time>2026-04-07T15:00:28.579Z</time></trkpt><trkpt lat="46.6466582" lon="12.4508323"><ele>1478.0</ele><time>2026-04-07T15:00:29.578Z</time></trkpt><trkpt lat="46.6467306" lon="12.4507562"><ele>1478.0</ele><time>2026-04-07T15:00:30.579Z</time></trkpt><trkpt lat="46.6468048" lon="12.4506799"><ele>1478.0</ele><time>2026-04-07T15:00:31.579Z</time></trkpt><trkpt lat="46.6468803" lon="12.4506021"><ele>1478.0</ele><time>2026-04-07T15:00:32.579Z</time></trkpt><trkpt lat="46.6469563" lon="12.4505221"><ele>1478.0</ele><time>2026-04-07T15:00:33.578Z</time></trkpt><trkpt lat="46.6470344" lon="12.4504459"><ele>1478.8000000000002</ele><time>2026-04-07T15:00:34.578Z</time></trkpt><trkpt lat="46.6471091" lon="12.4503629"><ele>1479.6</ele><time>2026-04-07T15:00:35.579Z</time></trkpt><trkpt lat="46.6471814" lon="12.4502756"><ele>1480.4</ele><time>2026-04-07T15:00:36.579Z</time></trkpt><trkpt lat="46.6472528" lon="12.4501866"><ele>1481.1999999999998</ele><time>2026-04-07T15:00:37.579Z</time></trkpt><trkpt lat="46.6473234" lon="12.4500949"><ele>1482.0</ele><time>2026-04-07T15:00:38.578Z</time></trkpt><trkpt lat="46.6473929" lon="12.4500038"><ele>1482.0</ele><time>2026-04-07T15:00:39.578Z</time></trkpt><trkpt lat="46.6474631" lon="12.449912"><ele>1482.0</ele><time>2026-04-07T15:00:40.579Z</time></trkpt><trkpt lat="46.6475322" lon="12.4498201"><ele>1482.0</ele><time>2026-04-07T15:00:41.579Z</time></trkpt><trkpt lat="46.6476032" lon="12.4497308"><ele>1482.0</ele><time>2026-04-07T15:00:42.577Z</time></trkpt><trkpt lat="46.6476703" lon="12.4496357"><ele>1482.0</ele><time>2026-04-07T15:00:43.579Z</time></trkpt><trkpt lat="46.6477311" lon="12.449534"><ele>1484.3999999999999</ele><time>2026-04-07T15:00:44.579Z</time></trkpt><trkpt lat="46.6477858" lon="12.4494239"><ele>1486.8</ele><time>2026-04-07T15:00:45.579Z</time></trkpt><trkpt lat="46.6478326" lon="12.4493088"><ele>1489.2</ele><time>2026-04-07T15:00:46.578Z</time></trkpt><trkpt lat="46.6478726" lon="12.4491875"><ele>1491.6</ele><time>2026-04-07T15:00:47.578Z</time></trkpt><trkpt lat="46.6479099" lon="12.4490634"><ele>1494.0</ele><time>2026-04-07T15:00:48.578Z</time></trkpt><trkpt lat="46.6479479" lon="12.4489399"><ele>1494.0</ele><time>2026-04-07T15:00:49.578Z</time></trkpt><trkpt lat="46.647989" lon="12.44882"><ele>1494.0</ele><time>2026-04-07T15:00:50.579Z</time></trkpt><trkpt lat="46.6480343" lon="12.4487059"><ele>1494.0</ele><time>2026-04-07T15:00:51.579Z</time></trkpt><trkpt lat="46.6480826" lon="12.4485953"><ele>1494.0</ele><time>2026-04-07T15:00:52.579Z</time></trkpt><trkpt lat="46.6481391" lon="12.4484981"><ele>1494.0</ele><time>2026-04-07T15:00:53.579Z</time></trkpt><trkpt lat="46.6481951" lon="12.4484012"><ele>1494.0</ele><time>2026-04-07T15:00:54.579Z</time></trkpt><trkpt lat="46.6482503" lon="12.4483055"><ele>1489.6666666666667</ele><time>2026-04-07T15:00:55.578Z</time></trkpt><trkpt lat="46.6482898" lon="12.4481954"><ele>1485.3333333333333</ele><time>2026-04-07T15:00:56.579Z</time></trkpt><trkpt lat="46.6482928" lon="12.4480713"><ele>1481.0</ele><time>2026-04-07T15:00:57.578Z</time></trkpt><trkpt lat="46.6482621" lon="12.447961"><ele>1476.6666666666665</ele><time>2026-04-07T15:00:58.579Z</time></trkpt><trkpt lat="46.6482001" lon="12.4478839"><ele>1472.3333333333333</ele><time>2026-04-07T15:00:59.579Z</time></trkpt><trkpt lat="46.6481159" lon="12.4478683"><ele>1468.0</ele><time>2026-04-07T15:01:00.578Z</time></trkpt><trkpt lat="46.6480449" lon="12.4479171"><ele>1468.0</ele><time>2026-04-07T15:01:01.579Z</time></trkpt><trkpt lat="46.6479891" lon="12.4480071"><ele>1468.0</ele><time>2026-04-07T15:01:02.578Z</time></trkpt><trkpt lat="46.6479505" lon="12.4481203"><ele>1468.0</ele><time>2026-04-07T15:01:03.578Z</time></trkpt><trkpt lat="46.6479129" lon="12.4482448"><ele>1468.0</ele><time>2026-04-07T15:01:04.578Z</time></trkpt><trkpt lat="46.6478842" lon="12.4483778"><ele>1468.0</ele><time>2026-04-07T15:01:05.579Z</time></trkpt><trkpt lat="46.6478543" lon="12.4485111"><ele>1468.0</ele><time>2026-04-07T15:01:06.578Z</time></trkpt><trkpt lat="46.6478126" lon="12.4486417"><ele>1468.0</ele><time>2026-04-07T15:01:07.578Z</time></trkpt><trkpt lat="46.6477635" lon="12.448769"><ele>1468.0</ele><time>2026-04-07T15:01:08.578Z</time></trkpt><trkpt lat="46.6477052" lon="12.4488891"><ele>1468.0</ele><time>2026-04-07T15:01:09.579Z</time></trkpt><trkpt lat="46.6476392" lon="12.4489981"><ele>1468.0</ele><time>2026-04-07T15:01:10.579Z</time></trkpt><trkpt lat="46.6475665" lon="12.4491046"><ele>1467.8000000000002</ele><time>2026-04-07T15:01:11.579Z</time></trkpt><trkpt lat="46.6474849" lon="12.4492039"><ele>1467.6</ele><time>2026-04-07T15:01:12.579Z</time></trkpt><trkpt lat="46.6474005" lon="12.4493021"><ele>1467.4</ele><time>2026-04-07T15:01:13.578Z</time></trkpt><trkpt lat="46.647315" lon="12.4493985"><ele>1467.1999999999998</ele><time>2026-04-07T15:01:14.579Z</time></trkpt><trkpt lat="46.6472259" lon="12.4494992"><ele>1467.0</ele><time>2026-04-07T15:01:15.577Z</time></trkpt><trkpt lat="46.6471357" lon="12.4496036"><ele>1464.0</ele><time>2026-04-07T15:01:16.578Z</time></trkpt><trkpt lat="46.6470404" lon="12.4497068"><ele>1461.0</ele><time>2026-04-07T15:01:17.578Z</time></trkpt><trkpt lat="46.6469421" lon="12.4498116"><ele>1458.0</ele><time>2026-04-07T15:01:18.579Z</time></trkpt><trkpt lat="46.6468414" lon="12.4499181"><ele>1455.0</ele><time>2026-04-07T15:01:19.578Z</time></trkpt><trkpt lat="46.6467391" lon="12.4500285"><ele>1455.0</ele><time>2026-04-07T15:01:20.578Z</time></trkpt><trkpt lat="46.6466348" lon="12.450142"><ele>1455.0</ele><time>2026-04-07T15:01:21.579Z</time></trkpt><trkpt lat="46.6465272" lon="12.4502552"><ele>1455.0</ele><time>2026-04-07T15:01:22.579Z</time></trkpt><trkpt lat="46.6464149" lon="12.4503699"><ele>1455.0</ele><time>2026-04-07T15:01:23.579Z</time></trkpt><trkpt lat="46.6463015" lon="12.4504813"><ele>1453.25</ele><time>2026-04-07T15:01:24.579Z</time></trkpt><trkpt lat="46.6461856" lon="12.4505846"><ele>1451.5</ele><time>2026-04-07T15:01:25.579Z</time></trkpt><trkpt lat="46.6460697" lon="12.4506912"><ele>1449.75</ele><time>2026-04-07T15:01:26.578Z</time></trkpt><trkpt lat="46.6459526" lon="12.4507909"><ele>1448.0</ele><time>2026-04-07T15:01:27.578Z</time></trkpt><trkpt lat="46.6458328" lon="12.4508826"><ele>1448.0</ele><time>2026-04-07T15:01:28.579Z</time></trkpt><trkpt lat="46.64571" lon="12.4509662"><ele>1448.0</ele><time>2026-04-07T15:01:29.578Z</time></trkpt><trkpt lat="46.6455963" lon="12.451057"><ele>1448.0</ele><time>2026-04-07T15:01:30.579Z</time></trkpt><trkpt lat="46.6454847" lon="12.4511581"><ele>1448.0</ele><time>2026-04-07T15:01:31.579Z</time></trkpt><trkpt lat="46.6453798" lon="12.4512748"><ele>1447.25</ele><time>2026-04-07T15:01:32.579Z</time></trkpt><trkpt lat="46.6452816" lon="12.451395"><ele>1446.5</ele><time>2026-04-07T15:01:33.578Z</time></trkpt><trkpt lat="46.6451837" lon="12.45151"><ele>1445.75</ele><time>2026-04-07T15:01:34.578Z</time></trkpt><trkpt lat="46.6450858" lon="12.4516239"><ele>1445.0</ele><time>2026-04-07T15:01:35.579Z</time></trkpt><trkpt lat="46.6449888" lon="12.4517302"><ele>1445.0</ele><time>2026-04-07T15:01:36.579Z</time></trkpt><trkpt lat="46.6448922" lon="12.4518299"><ele>1445.0</ele><time>2026-04-07T15:01:37.579Z</time></trkpt><trkpt lat="46.6447972" lon="12.4519294"><ele>1445.0</ele><time>2026-04-07T15:01:38.578Z</time></trkpt><trkpt lat="46.6447106" lon="12.4520308"><ele>1445.0</ele><time>2026-04-07T15:01:39.579Z</time></trkpt><trkpt lat="46.6446342" lon="12.452129"><ele>1445.0</ele><time>2026-04-07T15:01:40.578Z</time></trkpt><trkpt lat="46.6445654" lon="12.4522268"><ele>1444.2</ele><time>2026-04-07T15:01:41.579Z</time></trkpt><trkpt lat="46.6445019" lon="12.4523293"><ele>1443.4</ele><time>2026-04-07T15:01:42.578Z</time></trkpt><trkpt lat="46.644446" lon="12.452437"><ele>1442.6</ele><time>2026-04-07T15:01:43.579Z</time></trkpt><trkpt lat="46.6443971" lon="12.4525553"><ele>1441.8</ele><time>2026-04-07T15:01:44.579Z</time></trkpt><trkpt lat="46.6443609" lon="12.4526844"><ele>1441.0</ele><time>2026-04-07T15:01:45.579Z</time></trkpt><trkpt lat="46.6443278" lon="12.452822"><ele>1441.0</ele><time>2026-04-07T15:01:46.579Z</time></trkpt><trkpt lat="46.6443003" lon="12.4529631"><ele>1441.0</ele><time>2026-04-07T15:01:47.579Z</time></trkpt><trkpt lat="46.6442763" lon="12.4531117"><ele>1441.0</ele><time>2026-04-07T15:01:48.578Z</time></trkpt><trkpt lat="46.6442427" lon="12.4532564"><ele>1441.0</ele><time>2026-04-07T15:01:49.578Z</time></trkpt><trkpt lat="46.6441806" lon="12.4533753"><ele>1441.0</ele><time>2026-04-07T15:01:50.579Z</time></trkpt><trkpt lat="46.6440934" lon="12.4534689"><ele>1441.0</ele><time>2026-04-07T15:01:51.579Z</time></trkpt><trkpt lat="46.6440009" lon="12.4535594"><ele>1441.0</ele><time>2026-04-07T15:01:52.579Z</time></trkpt><trkpt lat="46.6439089" lon="12.4536573"><ele>1441.0</ele><time>2026-04-07T15:01:53.577Z</time></trkpt><trkpt lat="46.6438225" lon="12.4537675"><ele>1441.0</ele><time>2026-04-07T15:01:54.578Z</time></trkpt><trkpt lat="46.6437415" lon="12.4538865"><ele>1442.5</ele><time>2026-04-07T15:01:55.578Z</time></trkpt><trkpt lat="46.6436609" lon="12.4540098"><ele>1444.0</ele><time>2026-04-07T15:01:56.579Z</time></trkpt><trkpt lat="46.6435806" lon="12.4541385"><ele>1445.5</ele><time>2026-04-07T15:01:57.578Z</time></trkpt><trkpt lat="46.643494" lon="12.454264"><ele>1447.0</ele><time>2026-04-07T15:01:58.579Z</time></trkpt><trkpt lat="46.6433947" lon="12.4543681"><ele>1446.75</ele><time>2026-04-07T15:01:59.579Z</time></trkpt><trkpt lat="46.6432869" lon="12.4544588"><ele>1446.5</ele><time>2026-04-07T15:02:00.579Z</time></trkpt><trkpt lat="46.6431761" lon="12.4545372"><ele>1446.25</ele><time>2026-04-07T15:02:01.579Z</time></trkpt><trkpt lat="46.6430696" lon="12.454633"><ele>1446.0</ele><time>2026-04-07T15:02:02.579Z</time></trkpt><trkpt lat="46.6429636" lon="12.4547284"><ele>1446.0</ele><time>2026-04-07T15:02:03.578Z</time></trkpt><trkpt lat="46.6428625" lon="12.4548355"><ele>1446.0</ele><time>2026-04-07T15:02:04.579Z</time></trkpt><trkpt lat="46.6427628" lon="12.4549472"><ele>1446.0</ele><time>2026-04-07T15:02:05.579Z</time></trkpt><trkpt lat="46.6426699" lon="12.4550594"><ele>1446.0</ele><time>2026-04-07T15:02:06.578Z</time></trkpt><trkpt lat="46.6425746" lon="12.4551702"><ele>1444.0</ele><time>2026-04-07T15:02:07.578Z</time></trkpt><trkpt lat="46.6424834" lon="12.4552835"><ele>1442.0</ele><time>2026-04-07T15:02:08.578Z</time></trkpt><trkpt lat="46.6423914" lon="12.4553959"><ele>1440.0</ele><time>2026-04-07T15:02:09.578Z</time></trkpt><trkpt lat="46.6423034" lon="12.4555183"><ele>1438.0</ele><time>2026-04-07T15:02:10.578Z</time></trkpt><trkpt lat="46.6422149" lon="12.4556388"><ele>1438.0</ele><time>2026-04-07T15:02:11.578Z</time></trkpt><trkpt lat="46.6421217" lon="12.4557505"><ele>1438.0</ele><time>2026-04-07T15:02:12.579Z</time></trkpt><trkpt lat="46.6420171" lon="12.4558449"><ele>1438.0</ele><time>2026-04-07T15:02:13.578Z</time></trkpt><trkpt lat="46.6419134" lon="12.4559286"><ele>1438.0</ele><time>2026-04-07T15:02:14.579Z</time></trkpt><trkpt lat="46.6418058" lon="12.4560146"><ele>1437.75</ele><time>2026-04-07T15:02:15.579Z</time></trkpt><trkpt lat="46.6417057" lon="12.4561104"><ele>1437.5</ele><time>2026-04-07T15:02:16.579Z</time></trkpt><trkpt lat="46.6415931" lon="12.4561958"><ele>1437.25</ele><time>2026-04-07T15:02:17.578Z</time></trkpt><trkpt lat="46.6414847" lon="12.456287"><ele>1437.0</ele><time>2026-04-07T15:02:18.579Z</time></trkpt><trkpt lat="46.6413657" lon="12.4563655"><ele>1437.0</ele><time>2026-04-07T15:02:19.578Z</time></trkpt><trkpt lat="46.6412756" lon="12.4564823"><ele>1437.0</ele><time>2026-04-07T15:02:20.578Z</time></trkpt><trkpt lat="46.6411706" lon="12.4565662"><ele>1437.0</ele><time>2026-04-07T15:02:21.579Z</time></trkpt><trkpt lat="46.6410702" lon="12.4566534"><ele>1437.0</ele><time>2026-04-07T15:02:22.579Z</time></trkpt><trkpt lat="46.6409484" lon="12.456707"><ele>1428.0</ele><time>2026-04-07T15:02:23.579Z</time></trkpt><trkpt lat="46.6408393" lon="12.4567737"><ele>1419.0</ele><time>2026-04-07T15:02:24.578Z</time></trkpt><trkpt lat="46.6407266" lon="12.4568387"><ele>1410.0</ele><time>2026-04-07T15:02:25.579Z</time></trkpt><trkpt lat="46.6406165" lon="12.4569128"><ele>1401.0</ele><time>2026-04-07T15:02:26.579Z</time></trkpt><trkpt lat="46.640508" lon="12.4569925"><ele>1401.0</ele><time>2026-04-07T15:02:27.579Z</time></trkpt><trkpt lat="46.6403948" lon="12.4570632"><ele>1401.0</ele><time>2026-04-07T15:02:28.579Z</time></trkpt><trkpt lat="46.640291" lon="12.4571417"><ele>1401.0</ele><time>2026-04-07T15:02:29.579Z</time></trkpt><trkpt lat="46.6401809" lon="12.4572183"><ele>1401.0</ele><time>2026-04-07T15:02:30.579Z</time></trkpt><trkpt lat="46.6400727" lon="12.4573019"><ele>1402.75</ele><time>2026-04-07T15:02:31.579Z</time></trkpt><trkpt lat="46.6399691" lon="12.4573808"><ele>1404.5</ele><time>2026-04-07T15:02:32.578Z</time></trkpt><trkpt lat="46.6398633" lon="12.4574581"><ele>1406.25</ele><time>2026-04-07T15:02:33.579Z</time></trkpt><trkpt lat="46.6397606" lon="12.4575497"><ele>1408.0</ele><time>2026-04-07T15:02:34.578Z</time></trkpt><trkpt lat="46.6396566" lon="12.4576308"><ele>1408.0</ele><time>2026-04-07T15:02:35.579Z</time></trkpt><trkpt lat="46.6395525" lon="12.457721"><ele>1408.0</ele><time>2026-04-07T15:02:36.578Z</time></trkpt><trkpt lat="46.6394545" lon="12.4578295"><ele>1408.0</ele><time>2026-04-07T15:02:37.577Z</time></trkpt><trkpt lat="46.6393529" lon="12.457933"><ele>1408.0</ele><time>2026-04-07T15:02:38.579Z</time></trkpt><trkpt lat="46.6392547" lon="12.4580427"><ele>1405.75</ele><time>2026-04-07T15:02:39.579Z</time></trkpt><trkpt lat="46.6391511" lon="12.4581317"><ele>1403.5</ele><time>2026-04-07T15:02:40.578Z</time></trkpt><trkpt lat="46.6390532" lon="12.4582343"><ele>1401.25</ele><time>2026-04-07T15:02:41.577Z</time></trkpt><trkpt lat="46.6389541" lon="12.4583268"><ele>1399.0</ele><time>2026-04-07T15:02:42.579Z</time></trkpt><trkpt lat="46.638857" lon="12.4584414"><ele>1399.0</ele><time>2026-04-07T15:02:43.579Z</time></trkpt><trkpt lat="46.6387593" lon="12.4585386"><ele>1399.0</ele><time>2026-04-07T15:02:44.579Z</time></trkpt><trkpt lat="46.6386642" lon="12.458643"><ele>1399.0</ele><time>2026-04-07T15:02:45.579Z</time></trkpt><trkpt lat="46.6385703" lon="12.4587445"><ele>1399.0</ele><time>2026-04-07T15:02:46.579Z</time></trkpt><trkpt lat="46.6384694" lon="12.458851"><ele>1396.75</ele><time>2026-04-07T15:02:47.578Z</time></trkpt><trkpt lat="46.6383776" lon="12.4589626"><ele>1394.5</ele><time>2026-04-07T15:02:48.579Z</time></trkpt><trkpt lat="46.638283" lon="12.4590705"><ele>1392.25</ele><time>2026-04-07T15:02:49.578Z</time></trkpt><trkpt lat="46.6381838" lon="12.4591726"><ele>1390.0</ele><time>2026-04-07T15:02:50.579Z</time></trkpt><trkpt lat="46.6380827" lon="12.4592695"><ele>1390.0</ele><time>2026-04-07T15:02:51.577Z</time></trkpt><trkpt lat="46.6379833" lon="12.4593637"><ele>1390.0</ele><time>2026-04-07T15:02:52.579Z</time></trkpt><trkpt lat="46.637884" lon="12.4594569"><ele>1390.0</ele><time>2026-04-07T15:02:53.579Z</time></trkpt><trkpt lat="46.6377855" lon="12.4595473"><ele>1390.0</ele><time>2026-04-07T15:02:54.579Z</time></trkpt><trkpt lat="46.6376867" lon="12.459638"><ele>1389.25</ele><time>2026-04-07T15:02:55.579Z</time></trkpt><trkpt lat="46.6375864" lon="12.459728"><ele>1388.5</ele><time>2026-04-07T15:02:56.579Z</time></trkpt><trkpt lat="46.6374894" lon="12.4598166"><ele>1387.75</ele><time>2026-04-07T15:02:57.579Z</time></trkpt><trkpt lat="46.6373891" lon="12.4599041"><ele>1387.0</ele><time>2026-04-07T15:02:58.579Z</time></trkpt><trkpt lat="46.6372923" lon="12.4599919"><ele>1387.0</ele><time>2026-04-07T15:02:59.579Z</time></trkpt><trkpt lat="46.6371937" lon="12.4600732"><ele>1387.0</ele><time>2026-04-07T15:03:00.579Z</time></trkpt><trkpt lat="46.6370902" lon="12.460146"><ele>1387.0</ele><time>2026-04-07T15:03:01.579Z</time></trkpt><trkpt lat="46.6369766" lon="12.4601996"><ele>1387.0</ele><time>2026-04-07T15:03:02.578Z</time></trkpt><trkpt lat="46.6368611" lon="12.4602416"><ele>1389.5</ele><time>2026-04-07T15:03:03.578Z</time></trkpt><trkpt lat="46.6367434" lon="12.4602787"><ele>1392.0</ele><time>2026-04-07T15:03:04.578Z</time></trkpt><trkpt lat="46.6366247" lon="12.4603282"><ele>1394.5</ele><time>2026-04-07T15:03:05.579Z</time></trkpt><trkpt lat="46.6365111" lon="12.4603968"><ele>1397.0</ele><time>2026-04-07T15:03:06.578Z</time></trkpt><trkpt lat="46.6364004" lon="12.4604905"><ele>1397.0</ele><time>2026-04-07T15:03:07.578Z</time></trkpt><trkpt lat="46.6362965" lon="12.4605965"><ele>1397.0</ele><time>2026-04-07T15:03:08.579Z</time></trkpt><trkpt lat="46.6361956" lon="12.4607157"><ele>1397.0</ele><time>2026-04-07T15:03:09.579Z</time></trkpt><trkpt lat="46.6360976" lon="12.4608417"><ele>1397.0</ele><time>2026-04-07T15:03:10.578Z</time></trkpt><trkpt lat="46.6359973" lon="12.4609673"><ele>1394.75</ele><time>2026-04-07T15:03:11.579Z</time></trkpt><trkpt lat="46.6358958" lon="12.4610943"><ele>1392.5</ele><time>2026-04-07T15:03:12.578Z</time></trkpt><trkpt lat="46.6357958" lon="12.4612246"><ele>1390.25</ele><time>2026-04-07T15:03:13.578Z</time></trkpt><trkpt lat="46.635695" lon="12.4613529"><ele>1388.0</ele><time>2026-04-07T15:03:14.578Z</time></trkpt><trkpt lat="46.6355942" lon="12.4614798"><ele>1388.0</ele><time>2026-04-07T15:03:15.578Z</time></trkpt><trkpt lat="46.6354936" lon="12.461606"><ele>1388.0</ele><time>2026-04-07T15:03:16.577Z</time></trkpt><trkpt lat="46.6353912" lon="12.4617267"><ele>1388.0</ele><time>2026-04-07T15:03:17.578Z</time></trkpt><trkpt lat="46.6352859" lon="12.4618427"><ele>1388.0</ele><time>2026-04-07T15:03:18.577Z</time></trkpt><trkpt lat="46.6351772" lon="12.4619536"><ele>1386.0</ele><time>2026-04-07T15:03:19.578Z</time></trkpt><trkpt lat="46.6350664" lon="12.4620607"><ele>1384.0</ele><time>2026-04-07T15:03:20.578Z</time></trkpt><trkpt lat="46.634955" lon="12.4621662"><ele>1382.0</ele><time>2026-04-07T15:03:21.578Z</time></trkpt><trkpt lat="46.634846" lon="12.4622757"><ele>1380.0</ele><time>2026-04-07T15:03:22.578Z</time></trkpt><trkpt lat="46.6347421" lon="12.4623944"><ele>1380.0</ele><time>2026-04-07T15:03:23.579Z</time></trkpt><trkpt lat="46.6346399" lon="12.4625237"><ele>1380.0</ele><time>2026-04-07T15:03:24.579Z</time></trkpt><trkpt lat="46.6345382" lon="12.4626567"><ele>1380.0</ele><time>2026-04-07T15:03:25.578Z</time></trkpt><trkpt lat="46.6344346" lon="12.4627867"><ele>1380.0</ele><time>2026-04-07T15:03:26.579Z</time></trkpt><trkpt lat="46.6343288" lon="12.462909"><ele>1378.75</ele><time>2026-04-07T15:03:27.578Z</time></trkpt><trkpt lat="46.6342209" lon="12.4630177"><ele>1377.5</ele><time>2026-04-07T15:03:28.579Z</time></trkpt><trkpt lat="46.6341068" lon="12.4631109"><ele>1376.25</ele><time>2026-04-07T15:03:29.579Z</time></trkpt><trkpt lat="46.633991" lon="12.4631893"><ele>1375.0</ele><time>2026-04-07T15:03:30.578Z</time></trkpt><trkpt lat="46.6338782" lon="12.4632581"><ele>1375.0</ele><time>2026-04-07T15:03:31.578Z</time></trkpt><trkpt lat="46.6337701" lon="12.4633281"><ele>1375.0</ele><time>2026-04-07T15:03:32.578Z</time></trkpt><trkpt lat="46.6336646" lon="12.4634018"><ele>1375.0</ele><time>2026-04-07T15:03:33.578Z</time></trkpt><trkpt lat="46.6335622" lon="12.4634775"><ele>1375.0</ele><time>2026-04-07T15:03:34.579Z</time></trkpt><trkpt lat="46.6334646" lon="12.4635599"><ele>1374.25</ele><time>2026-04-07T15:03:35.579Z</time></trkpt><trkpt lat="46.6333702" lon="12.4636537"><ele>1373.5</ele><time>2026-04-07T15:03:36.578Z</time></trkpt><trkpt lat="46.633281" lon="12.4637584"><ele>1372.75</ele><time>2026-04-07T15:03:37.579Z</time></trkpt><trkpt lat="46.6331873" lon="12.4638582"><ele>1372.0</ele><time>2026-04-07T15:03:38.579Z</time></trkpt><trkpt lat="46.6330963" lon="12.4639642"><ele>1372.0</ele><time>2026-04-07T15:03:39.579Z</time></trkpt><trkpt lat="46.6330053" lon="12.4640703"><ele>1372.0</ele><time>2026-04-07T15:03:40.579Z</time></trkpt><trkpt lat="46.6329133" lon="12.4641767"><ele>1372.0</ele><time>2026-04-07T15:03:41.579Z</time></trkpt><trkpt lat="46.6328193" lon="12.4642776"><ele>1372.0</ele><time>2026-04-07T15:03:42.579Z</time></trkpt><trkpt lat="46.6327258" lon="12.4643753"><ele>1367.0</ele><time>2026-04-07T15:03:43.579Z</time></trkpt><trkpt lat="46.6326269" lon="12.4644523"><ele>1362.0</ele><time>2026-04-07T15:03:44.579Z</time></trkpt><trkpt lat="46.6325362" lon="12.4645091"><ele>1357.0</ele><time>2026-04-07T15:03:45.577Z</time></trkpt><trkpt lat="46.6324436" lon="12.4645192"><ele>1352.0</ele><time>2026-04-07T15:03:46.578Z</time></trkpt><trkpt lat="46.6323534" lon="12.4644846"><ele>1347.0</ele><time>2026-04-07T15:03:47.578Z</time></trkpt><trkpt lat="46.6322766" lon="12.4644041"><ele>1347.0</ele><time>2026-04-07T15:03:48.578Z</time></trkpt><trkpt lat="46.6322291" lon="12.4642894"><ele>1347.0</ele><time>2026-04-07T15:03:49.577Z</time></trkpt><trkpt lat="46.632221" lon="12.4641604"><ele>1347.0</ele><time>2026-04-07T15:03:50.579Z</time></trkpt><trkpt lat="46.6322442" lon="12.4640287"><ele>1347.0</ele><time>2026-04-07T15:03:51.579Z</time></trkpt><trkpt lat="46.6322892" lon="12.4639039"><ele>1347.0</ele><time>2026-04-07T15:03:52.579Z</time></trkpt><trkpt lat="46.6323553" lon="12.4637899"><ele>1345.5</ele><time>2026-04-07T15:03:53.578Z</time></trkpt><trkpt lat="46.6324262" lon="12.4636879"><ele>1344.0</ele><time>2026-04-07T15:03:54.578Z</time></trkpt><trkpt lat="46.6324997" lon="12.4635913"><ele>1342.5</ele><time>2026-04-07T15:03:55.579Z</time></trkpt><trkpt lat="46.6325709" lon="12.4635019"><ele>1341.0</ele><time>2026-04-07T15:03:56.579Z</time></trkpt><trkpt lat="46.6326157" lon="12.4634022"><ele>1339.5</ele><time>2026-04-07T15:03:57.577Z</time></trkpt><trkpt lat="46.6326208" lon="12.4632977"><ele>1338.0</ele><time>2026-04-07T15:03:58.578Z</time></trkpt><trkpt lat="46.6325844" lon="12.4632069"><ele>1338.0</ele><time>2026-04-07T15:03:59.579Z</time></trkpt><trkpt lat="46.6325116" lon="12.4631863"><ele>1338.0</ele><time>2026-04-07T15:04:00.579Z</time></trkpt><trkpt lat="46.6324364" lon="12.463225"><ele>1338.0</ele><time>2026-04-07T15:04:01.579Z</time></trkpt><trkpt lat="46.632366" lon="12.4632942"><ele>1338.0</ele><time>2026-04-07T15:04:02.579Z</time></trkpt><trkpt lat="46.6322885" lon="12.4633721"><ele>1338.0</ele><time>2026-04-07T15:04:03.579Z</time></trkpt><trkpt lat="46.6322094" lon="12.4634557"><ele>1338.0</ele><time>2026-04-07T15:04:04.579Z</time></trkpt><trkpt lat="46.632123" lon="12.4635362"><ele>1338.0</ele><time>2026-04-07T15:04:05.578Z</time></trkpt><trkpt lat="46.6320341" lon="12.4635986"><ele>1338.0</ele><time>2026-04-07T15:04:06.579Z</time></trkpt><trkpt lat="46.6319287" lon="12.4636248"><ele>1338.0</ele><time>2026-04-07T15:04:07.579Z</time></trkpt><trkpt lat="46.6318222" lon="12.4635978"><ele>1338.0</ele><time>2026-04-07T15:04:08.579Z</time></trkpt><trkpt lat="46.631729" lon="12.4635159"><ele>1338.0</ele><time>2026-04-07T15:04:09.579Z</time></trkpt><trkpt lat="46.6316439" lon="12.4634261"><ele>1335.6000000000001</ele><time>2026-04-07T15:04:10.578Z</time></trkpt><trkpt lat="46.6315351" lon="12.4634269"><ele>1333.2</ele><time>2026-04-07T15:04:11.579Z</time></trkpt><trkpt lat="46.6314414" lon="12.4634661"><ele>1330.8</ele><time>2026-04-07T15:04:12.579Z</time></trkpt><trkpt lat="46.631359" lon="12.463559"><ele>1328.4</ele><time>2026-04-07T15:04:13.578Z</time></trkpt><trkpt lat="46.6312923" lon="12.4636849"><ele>1326.0</ele><time>2026-04-07T15:04:14.579Z</time></trkpt><trkpt lat="46.6312339" lon="12.4638208"><ele>1326.0</ele><time>2026-04-07T15:04:15.578Z</time></trkpt><trkpt lat="46.6311736" lon="12.4639579"><ele>1326.0</ele><time>2026-04-07T15:04:16.579Z</time></trkpt><trkpt lat="46.6311159" lon="12.4640979"><ele>1326.0</ele><time>2026-04-07T15:04:17.579Z</time></trkpt><trkpt lat="46.6310553" lon="12.4642428"><ele>1326.0</ele><time>2026-04-07T15:04:18.579Z</time></trkpt><trkpt lat="46.630993" lon="12.4643864"><ele>1325.0</ele><time>2026-04-07T15:04:19.579Z</time></trkpt><trkpt lat="46.6309261" lon="12.4645257"><ele>1324.0</ele><time>2026-04-07T15:04:20.578Z</time></trkpt><trkpt lat="46.630849" lon="12.4646536"><ele>1323.0</ele><time>2026-04-07T15:04:21.578Z</time></trkpt><trkpt lat="46.6307554" lon="12.4647587"><ele>1322.0</ele><time>2026-04-07T15:04:22.579Z</time></trkpt><trkpt lat="46.630655" lon="12.4648417"><ele>1322.0</ele><time>2026-04-07T15:04:23.577Z</time></trkpt><trkpt lat="46.6305485" lon="12.4649195"><ele>1322.0</ele><time>2026-04-07T15:04:24.578Z</time></trkpt><trkpt lat="46.6304309" lon="12.4648595"><ele>1322.0</ele><time>2026-04-07T15:04:25.578Z</time></trkpt><trkpt lat="46.6303264" lon="12.464791"><ele>1322.0</ele><time>2026-04-07T15:04:26.579Z</time></trkpt><trkpt lat="46.6302389" lon="12.4646891"><ele>1318.6</ele><time>2026-04-07T15:04:27.578Z</time></trkpt><trkpt lat="46.6301565" lon="12.4645821"><ele>1315.1999999999998</ele><time>2026-04-07T15:04:28.578Z</time></trkpt><trkpt lat="46.6300631" lon="12.4644986"><ele>1311.8</ele><time>2026-04-07T15:04:29.578Z</time></trkpt><trkpt lat="46.6299606" lon="12.464457"><ele>1308.4</ele><time>2026-04-07T15:04:30.578Z</time></trkpt><trkpt lat="46.6298562" lon="12.4644829"><ele>1305.0</ele><time>2026-04-07T15:04:31.579Z</time></trkpt><trkpt lat="46.6297587" lon="12.4645579"><ele>1307.0</ele><time>2026-04-07T15:04:32.579Z</time></trkpt><trkpt lat="46.6296687" lon="12.4646597"><ele>1309.0</ele><time>2026-04-07T15:04:33.579Z</time></trkpt><trkpt lat="46.6295861" lon="12.4647711"><ele>1311.0</ele><time>2026-04-07T15:04:34.579Z</time></trkpt><trkpt lat="46.6295017" lon="12.4648841"><ele>1313.0</ele><time>2026-04-07T15:04:35.579Z</time></trkpt><trkpt lat="46.6294209" lon="12.4650056"><ele>1311.25</ele><time>2026-04-07T15:04:36.578Z</time></trkpt><trkpt lat="46.6293581" lon="12.4651436"><ele>1309.5</ele><time>2026-04-07T15:04:37.578Z</time></trkpt><trkpt lat="46.629314" lon="12.4653009"><ele>1307.75</ele><time>2026-04-07T15:04:38.577Z</time></trkpt><trkpt lat="46.6292928" lon="12.4654658"><ele>1306.0</ele><time>2026-04-07T15:04:39.578Z</time></trkpt><trkpt lat="46.6292805" lon="12.4656358"><ele>1306.0</ele><time>2026-04-07T15:04:40.579Z</time></trkpt><trkpt lat="46.629265" lon="12.4658043"><ele>1306.0</ele><time>2026-04-07T15:04:41.579Z</time></trkpt><trkpt lat="46.6292515" lon="12.4659733"><ele>1306.0</ele><time>2026-04-07T15:04:42.579Z</time></trkpt><trkpt lat="46.629231" lon="12.4661413"><ele>1306.0</ele><time>2026-04-07T15:04:43.578Z</time></trkpt><trkpt lat="46.6292023" lon="12.4663066"><ele>1306.0</ele><time>2026-04-07T15:04:44.579Z</time></trkpt><trkpt lat="46.6291679" lon="12.4664683"><ele>1306.0</ele><time>2026-04-07T15:04:45.577Z</time></trkpt><trkpt lat="46.6291395" lon="12.4666289"><ele>1306.0</ele><time>2026-04-07T15:04:46.579Z</time></trkpt><trkpt lat="46.6291115" lon="12.4667898"><ele>1306.0</ele><time>2026-04-07T15:04:47.579Z</time></trkpt><trkpt lat="46.6290743" lon="12.4669518"><ele>1306.0</ele><time>2026-04-07T15:04:48.579Z</time></trkpt><trkpt lat="46.6290234" lon="12.4671058"><ele>1306.0</ele><time>2026-04-07T15:04:49.578Z</time></trkpt><trkpt lat="46.6289481" lon="12.4672407"><ele>1306.0</ele><time>2026-04-07T15:04:50.579Z</time></trkpt><trkpt lat="46.6288502" lon="12.4673389"><ele>1306.0</ele><time>2026-04-07T15:04:51.579Z</time></trkpt><trkpt lat="46.6287392" lon="12.4673989"><ele>1302.75</ele><time>2026-04-07T15:04:52.579Z</time></trkpt><trkpt lat="46.6286279" lon="12.4674601"><ele>1299.5</ele><time>2026-04-07T15:04:53.578Z</time></trkpt><trkpt lat="46.6285242" lon="12.4675496"><ele>1296.25</ele><time>2026-04-07T15:04:54.578Z</time></trkpt><trkpt lat="46.6284251" lon="12.4676579"><ele>1293.0</ele><time>2026-04-07T15:04:55.578Z</time></trkpt><trkpt lat="46.6283323" lon="12.4677737"><ele>1293.0</ele><time>2026-04-07T15:04:56.578Z</time></trkpt><trkpt lat="46.6282392" lon="12.4678903"><ele>1293.0</ele><time>2026-04-07T15:04:57.579Z</time></trkpt><trkpt lat="46.6281384" lon="12.4679993"><ele>1293.0</ele><time>2026-04-07T15:04:58.578Z</time></trkpt><trkpt lat="46.6280334" lon="12.4680939"><ele>1293.0</ele><time>2026-04-07T15:04:59.579Z</time></trkpt><trkpt lat="46.6279177" lon="12.4681519"><ele>1293.0</ele><time>2026-04-07T15:05:00.579Z</time></trkpt><trkpt lat="46.627795" lon="12.4681612"><ele>1293.0</ele><time>2026-04-07T15:05:01.579Z</time></trkpt><trkpt lat="46.6276802" lon="12.4681087"><ele>1293.0</ele><time>2026-04-07T15:05:02.579Z</time></trkpt><trkpt lat="46.6275712" lon="12.4680308"><ele>1293.0</ele><time>2026-04-07T15:05:03.579Z</time></trkpt><trkpt lat="46.6274635" lon="12.4679614"><ele>1289.25</ele><time>2026-04-07T15:05:04.578Z</time></trkpt><trkpt lat="46.6273475" lon="12.4679265"><ele>1285.5</ele><time>2026-04-07T15:05:05.579Z</time></trkpt><trkpt lat="46.6272302" lon="12.4679141"><ele>1281.75</ele><time>2026-04-07T15:05:06.579Z</time></trkpt><trkpt lat="46.6271137" lon="12.4679208"><ele>1278.0</ele><time>2026-04-07T15:05:07.579Z</time></trkpt><trkpt lat="46.6269993" lon="12.467939"><ele>1279.75</ele><time>2026-04-07T15:05:08.579Z</time></trkpt><trkpt lat="46.6268832" lon="12.467978"><ele>1281.5</ele><time>2026-04-07T15:05:09.579Z</time></trkpt><trkpt lat="46.6267687" lon="12.4680086"><ele>1283.25</ele><time>2026-04-07T15:05:10.579Z</time></trkpt><trkpt lat="46.6266595" lon="12.4680567"><ele>1285.0</ele><time>2026-04-07T15:05:11.578Z</time></trkpt><trkpt lat="46.6265531" lon="12.4681117"><ele>1285.0</ele><time>2026-04-07T15:05:12.579Z</time></trkpt><trkpt lat="46.6264495" lon="12.468172"><ele>1285.0</ele><time>2026-04-07T15:05:13.579Z</time></trkpt><trkpt lat="46.6263525" lon="12.4682404"><ele>1285.0</ele><time>2026-04-07T15:05:14.578Z</time></trkpt><trkpt lat="46.6262531" lon="12.4683138"><ele>1285.0</ele><time>2026-04-07T15:05:15.579Z</time></trkpt><trkpt lat="46.6261536" lon="12.4683858"><ele>1285.0</ele><time>2026-04-07T15:05:16.577Z</time></trkpt><trkpt lat="46.6260515" lon="12.4684481"><ele>1281.4</ele><time>2026-04-07T15:05:17.578Z</time></trkpt><trkpt lat="46.6259482" lon="12.4684976"><ele>1277.8</ele><time>2026-04-07T15:05:18.579Z</time></trkpt><trkpt lat="46.6258447" lon="12.4685445"><ele>1274.2</ele><time>2026-04-07T15:05:19.579Z</time></trkpt><trkpt lat="46.6257452" lon="12.4685913"><ele>1270.6</ele><time>2026-04-07T15:05:20.579Z</time></trkpt><trkpt lat="46.6256454" lon="12.4686429"><ele>1267.0</ele><time>2026-04-07T15:05:21.579Z</time></trkpt><trkpt lat="46.6255477" lon="12.4686964"><ele>1267.0</ele><time>2026-04-07T15:05:22.579Z</time></trkpt><trkpt lat="46.6254541" lon="12.4687501"><ele>1267.0</ele><time>2026-04-07T15:05:23.578Z</time></trkpt><trkpt lat="46.62536" lon="12.4688127"><ele>1267.0</ele><time>2026-04-07T15:05:24.578Z</time></trkpt><trkpt lat="46.6252713" lon="12.4688784"><ele>1267.0</ele><time>2026-04-07T15:05:25.578Z</time></trkpt><trkpt lat="46.6251844" lon="12.4689498"><ele>1267.0</ele><time>2026-04-07T15:05:26.577Z</time></trkpt><trkpt lat="46.6251025" lon="12.4690302"><ele>1266.4</ele><time>2026-04-07T15:05:27.578Z</time></trkpt><trkpt lat="46.6250194" lon="12.469116"><ele>1265.8000000000002</ele><time>2026-04-07T15:05:28.577Z</time></trkpt><trkpt lat="46.6249405" lon="12.4692033"><ele>1265.2</ele><time>2026-04-07T15:05:29.579Z</time></trkpt><trkpt lat="46.6248646" lon="12.4692941"><ele>1264.6000000000001</ele><time>2026-04-07T15:05:30.579Z</time></trkpt><trkpt lat="46.624787" lon="12.4693854"><ele>1264.0</ele><time>2026-04-07T15:05:31.579Z</time></trkpt><trkpt lat="46.6247096" lon="12.4694803"><ele>1264.0</ele><time>2026-04-07T15:05:32.579Z</time></trkpt><trkpt lat="46.6246322" lon="12.4695808"><ele>1264.0</ele><time>2026-04-07T15:05:33.578Z</time></trkpt><trkpt lat="46.6245534" lon="12.4696746"><ele>1264.0</ele><time>2026-04-07T15:05:34.578Z</time></trkpt><trkpt lat="46.6244737" lon="12.4697682"><ele>1264.0</ele><time>2026-04-07T15:05:35.578Z</time></trkpt><trkpt lat="46.624396" lon="12.4698618"><ele>1264.0</ele><time>2026-04-07T15:05:36.579Z</time></trkpt><trkpt lat="46.624316" lon="12.4699552"><ele>1263.4</ele><time>2026-04-07T15:05:37.579Z</time></trkpt><trkpt lat="46.6242355" lon="12.4700473"><ele>1262.8000000000002</ele><time>2026-04-07T15:05:38.579Z</time></trkpt><trkpt lat="46.624156" lon="12.4701353"><ele>1262.1999999999998</ele><time>2026-04-07T15:05:39.579Z</time></trkpt><trkpt lat="46.6240708" lon="12.4702149"><ele>1261.6</ele><time>2026-04-07T15:05:40.578Z</time></trkpt><trkpt lat="46.6239811" lon="12.4702888"><ele>1261.0</ele><time>2026-04-07T15:05:41.578Z</time></trkpt><trkpt lat="46.6238876" lon="12.4703549"><ele>1261.0</ele><time>2026-04-07T15:05:42.579Z</time></trkpt><trkpt lat="46.6237934" lon="12.4704172"><ele>1261.0</ele><time>2026-04-07T15:05:43.579Z</time></trkpt><trkpt lat="46.6236968" lon="12.4704736"><ele>1261.0</ele><time>2026-04-07T15:05:44.578Z</time></trkpt><trkpt lat="46.6235994" lon="12.4705333"><ele>1261.0</ele><time>2026-04-07T15:05:45.578Z</time></trkpt><trkpt lat="46.6234996" lon="12.4705841"><ele>1261.0</ele><time>2026-04-07T15:05:46.579Z</time></trkpt><trkpt lat="46.6233969" lon="12.4706215"><ele>1261.6</ele><time>2026-04-07T15:05:47.577Z</time></trkpt><trkpt lat="46.6232959" lon="12.4706347"><ele>1262.1999999999998</ele><time>2026-04-07T15:05:48.579Z</time></trkpt><trkpt lat="46.6231959" lon="12.4706353"><ele>1262.8000000000002</ele><time>2026-04-07T15:05:49.579Z</time></trkpt><trkpt lat="46.6230972" lon="12.4706331"><ele>1263.4</ele><time>2026-04-07T15:05:50.578Z</time></trkpt><trkpt lat="46.622997" lon="12.4706239"><ele>1264.0</ele><time>2026-04-07T15:05:51.579Z</time></trkpt><trkpt lat="46.6228962" lon="12.4706147"><ele>1262.6000000000001</ele><time>2026-04-07T15:05:52.578Z</time></trkpt><trkpt lat="46.6227947" lon="12.4706153"><ele>1261.2</ele><time>2026-04-07T15:05:53.578Z</time></trkpt><trkpt lat="46.6226945" lon="12.4706294"><ele>1259.8000000000002</ele><time>2026-04-07T15:05:54.578Z</time></trkpt><trkpt lat="46.6226001" lon="12.4706719"><ele>1258.4</ele><time>2026-04-07T15:05:55.578Z</time></trkpt><trkpt lat="46.622521" lon="12.4707569"><ele>1257.0</ele><time>2026-04-07T15:05:56.578Z</time></trkpt><trkpt lat="46.6224533" lon="12.4708652"><ele>1257.0</ele><time>2026-04-07T15:05:57.579Z</time></trkpt><trkpt lat="46.6223941" lon="12.4709844"><ele>1257.0</ele><time>2026-04-07T15:05:58.579Z</time></trkpt><trkpt lat="46.6223382" lon="12.4711104"><ele>1257.0</ele><time>2026-04-07T15:05:59.579Z</time></trkpt><trkpt lat="46.6222823" lon="12.4712383"><ele>1257.0</ele><time>2026-04-07T15:06:00.578Z</time></trkpt><trkpt lat="46.6222275" lon="12.4713665"><ele>1257.0</ele><time>2026-04-07T15:06:01.577Z</time></trkpt><trkpt lat="46.6221765" lon="12.4714989"><ele>1260.0</ele><time>2026-04-07T15:06:02.578Z</time></trkpt><trkpt lat="46.6221377" lon="12.4716367"><ele>1263.0</ele><time>2026-04-07T15:06:03.577Z</time></trkpt><trkpt lat="46.6221121" lon="12.4717818"><ele>1266.0</ele><time>2026-04-07T15:06:04.579Z</time></trkpt><trkpt lat="46.6220947" lon="12.4719311"><ele>1269.0</ele><time>2026-04-07T15:06:05.579Z</time></trkpt><trkpt lat="46.6220755" lon="12.4720792"><ele>1272.0</ele><time>2026-04-07T15:06:06.579Z</time></trkpt><trkpt lat="46.6220494" lon="12.4722295"><ele>1274.0</ele><time>2026-04-07T15:06:07.578Z</time></trkpt><trkpt lat="46.6220143" lon="12.4723753"><ele>1276.0</ele><time>2026-04-07T15:06:08.578Z</time></trkpt><trkpt lat="46.6219635" lon="12.4725107"><ele>1278.0</ele><time>2026-04-07T15:06:09.578Z</time></trkpt><trkpt lat="46.6218955" lon="12.4726259"><ele>1280.0</ele><time>2026-04-07T15:06:10.578Z</time></trkpt><trkpt lat="46.6218134" lon="12.4727217"><ele>1282.0</ele><time>2026-04-07T15:06:11.578Z</time></trkpt><trkpt lat="46.6217294" lon="12.4728154"><ele>1281.8</ele><time>2026-04-07T15:06:12.579Z</time></trkpt><trkpt lat="46.6216386" lon="12.4728776"><ele>1281.6</ele><time>2026-04-07T15:06:13.579Z</time></trkpt><trkpt lat="46.6215155" lon="12.4728902"><ele>1281.3999999999999</ele><time>2026-04-07T15:06:14.579Z</time></trkpt><trkpt lat="46.6214178" lon="12.4729388"><ele>1281.1999999999998</ele><time>2026-04-07T15:06:15.579Z</time></trkpt><trkpt lat="46.621311" lon="12.4729739"><ele>1281.0</ele><time>2026-04-07T15:06:16.579Z</time></trkpt><trkpt lat="46.6212057" lon="12.4730119"><ele>1277.0</ele><time>2026-04-07T15:06:17.578Z</time></trkpt><trkpt lat="46.621117" lon="12.4730894"><ele>1273.0</ele><time>2026-04-07T15:06:18.579Z</time></trkpt><trkpt lat="46.6210268" lon="12.4731673"><ele>1269.0</ele><time>2026-04-07T15:06:19.579Z</time></trkpt><trkpt lat="46.6209379" lon="12.473257"><ele>1265.0</ele><time>2026-04-07T15:06:20.578Z</time></trkpt><trkpt lat="46.6208484" lon="12.4733438"><ele>1261.0</ele><time>2026-04-07T15:06:21.579Z</time></trkpt><trkpt lat="46.6207552" lon="12.4734318"><ele>1261.0</ele><time>2026-04-07T15:06:22.578Z</time></trkpt><trkpt lat="46.6206581" lon="12.4735115"><ele>1261.0</ele><time>2026-04-07T15:06:23.579Z</time></trkpt><trkpt lat="46.6205615" lon="12.4735809"><ele>1261.0</ele><time>2026-04-07T15:06:24.578Z</time></trkpt><trkpt lat="46.6204669" lon="12.473651"><ele>1261.0</ele><time>2026-04-07T15:06:25.578Z</time></trkpt><trkpt lat="46.6203625" lon="12.4736984"><ele>1261.0</ele><time>2026-04-07T15:06:26.578Z</time></trkpt><trkpt lat="46.620258" lon="12.4737306"><ele>1261.8</ele><time>2026-04-07T15:06:27.579Z</time></trkpt><trkpt lat="46.6201587" lon="12.4737761"><ele>1262.6</ele><time>2026-04-07T15:06:28.579Z</time></trkpt><trkpt lat="46.6200528" lon="12.4738297"><ele>1263.4</ele><time>2026-04-07T15:06:29.579Z</time></trkpt><trkpt lat="46.6199541" lon="12.4738782"><ele>1264.2</ele><time>2026-04-07T15:06:30.579Z</time></trkpt><trkpt lat="46.6198562" lon="12.4739315"><ele>1265.0</ele><time>2026-04-07T15:06:31.579Z</time></trkpt><trkpt lat="46.619759" lon="12.4739765"><ele>1265.0</ele><time>2026-04-07T15:06:32.579Z</time></trkpt><trkpt lat="46.619659" lon="12.4740256"><ele>1265.0</ele><time>2026-04-07T15:06:33.579Z</time></trkpt><trkpt lat="46.6195568" lon="12.4740539"><ele>1265.0</ele><time>2026-04-07T15:06:34.579Z</time></trkpt><trkpt lat="46.6194627" lon="12.474079"><ele>1265.0</ele><time>2026-04-07T15:06:35.578Z</time></trkpt><trkpt lat="46.6193582" lon="12.4741146"><ele>1265.0</ele><time>2026-04-07T15:06:36.579Z</time></trkpt><trkpt lat="46.6192582" lon="12.4741388"><ele>1260.4</ele><time>2026-04-07T15:06:37.579Z</time></trkpt><trkpt lat="46.6191526" lon="12.4741614"><ele>1255.8</ele><time>2026-04-07T15:06:38.578Z</time></trkpt><trkpt lat="46.6190479" lon="12.474193"><ele>1251.2</ele><time>2026-04-07T15:06:39.578Z</time></trkpt><trkpt lat="46.6189405" lon="12.474228"><ele>1246.6</ele><time>2026-04-07T15:06:40.578Z</time></trkpt><trkpt lat="46.6188416" lon="12.4742827"><ele>1242.0</ele><time>2026-04-07T15:06:41.579Z</time></trkpt><trkpt lat="46.6187413" lon="12.4743392"><ele>1240.4</ele><time>2026-04-07T15:06:42.579Z</time></trkpt><trkpt lat="46.6186427" lon="12.4744076"><ele>1238.8000000000002</ele><time>2026-04-07T15:06:43.579Z</time></trkpt><trkpt lat="46.6185479" lon="12.4744803"><ele>1237.2</ele><time>2026-04-07T15:06:44.578Z</time></trkpt><trkpt lat="46.6184506" lon="12.4745507"><ele>1235.6000000000001</ele><time>2026-04-07T15:06:45.579Z</time></trkpt><trkpt lat="46.6183523" lon="12.4746179"><ele>1234.0</ele><time>2026-04-07T15:06:46.579Z</time></trkpt><trkpt lat="46.6182541" lon="12.4746839"><ele>1233.2</ele><time>2026-04-07T15:06:47.579Z</time></trkpt><trkpt lat="46.6181565" lon="12.4747481"><ele>1232.4</ele><time>2026-04-07T15:06:48.579Z</time></trkpt><trkpt lat="46.6180604" lon="12.4748081"><ele>1231.6</ele><time>2026-04-07T15:06:49.579Z</time></trkpt><trkpt lat="46.6179642" lon="12.474871"><ele>1230.8</ele><time>2026-04-07T15:06:50.579Z</time></trkpt><trkpt lat="46.617871" lon="12.4749363"><ele>1230.0</ele><time>2026-04-07T15:06:51.579Z</time></trkpt><trkpt lat="46.617776" lon="12.4749989"><ele>1230.0</ele><time>2026-04-07T15:06:52.579Z</time></trkpt><trkpt lat="46.6176777" lon="12.4750573"><ele>1230.0</ele><time>2026-04-07T15:06:53.578Z</time></trkpt><trkpt lat="46.61758" lon="12.4751141"><ele>1230.0</ele><time>2026-04-07T15:06:54.578Z</time></trkpt><trkpt lat="46.6174853" lon="12.4751766"><ele>1230.0</ele><time>2026-04-07T15:06:55.579Z</time></trkpt><trkpt lat="46.6173859" lon="12.4752395"><ele>1230.0</ele><time>2026-04-07T15:06:56.578Z</time></trkpt><trkpt lat="46.6172902" lon="12.4753025"><ele>1230.0</ele><time>2026-04-07T15:06:57.579Z</time></trkpt><trkpt lat="46.617192" lon="12.475366"><ele>1230.0</ele><time>2026-04-07T15:06:58.579Z</time></trkpt><trkpt lat="46.6170911" lon="12.4754241"><ele>1230.0</ele><time>2026-04-07T15:06:59.578Z</time></trkpt><trkpt lat="46.6169904" lon="12.4754776"><ele>1230.0</ele><time>2026-04-07T15:07:00.579Z</time></trkpt><trkpt lat="46.6168883" lon="12.4755237"><ele>1230.0</ele><time>2026-04-07T15:07:01.579Z</time></trkpt><trkpt lat="46.616786" lon="12.4755591"><ele>1229.4</ele><time>2026-04-07T15:07:02.578Z</time></trkpt><trkpt lat="46.6166831" lon="12.4755815"><ele>1228.8</ele><time>2026-04-07T15:07:03.579Z</time></trkpt><trkpt lat="46.6165792" lon="12.4755888"><ele>1228.2</ele><time>2026-04-07T15:07:04.579Z</time></trkpt><trkpt lat="46.6164773" lon="12.4755935"><ele>1227.6</ele><time>2026-04-07T15:07:05.578Z</time></trkpt><trkpt lat="46.6163751" lon="12.4755858"><ele>1227.0</ele><time>2026-04-07T15:07:06.579Z</time></trkpt><trkpt lat="46.6162751" lon="12.4755755"><ele>1227.0</ele><time>2026-04-07T15:07:07.579Z</time></trkpt><trkpt lat="46.616175" lon="12.4755746"><ele>1227.0</ele><time>2026-04-07T15:07:08.579Z</time></trkpt><trkpt lat="46.6160757" lon="12.4755688"><ele>1227.0</ele><time>2026-04-07T15:07:09.579Z</time></trkpt><trkpt lat="46.6159752" lon="12.4755623"><ele>1227.0</ele><time>2026-04-07T15:07:10.578Z</time></trkpt><trkpt lat="46.6158755" lon="12.4755531"><ele>1227.0</ele><time>2026-04-07T15:07:11.578Z</time></trkpt><trkpt lat="46.6157742" lon="12.4755469"><ele>1226.6</ele><time>2026-04-07T15:07:12.578Z</time></trkpt><trkpt lat="46.6156716" lon="12.4755436"><ele>1226.2</ele><time>2026-04-07T15:07:13.579Z</time></trkpt><trkpt lat="46.6155706" lon="12.4755457"><ele>1225.8</ele><time>2026-04-07T15:07:14.578Z</time></trkpt><trkpt lat="46.6154724" lon="12.4755758"><ele>1225.4</ele><time>2026-04-07T15:07:15.579Z</time></trkpt><trkpt lat="46.6153828" lon="12.4756373"><ele>1225.0</ele><time>2026-04-07T15:07:16.579Z</time></trkpt><trkpt lat="46.6153082" lon="12.4757337"><ele>1225.2</ele><time>2026-04-07T15:07:17.579Z</time></trkpt><trkpt lat="46.6152464" lon="12.4758454"><ele>1225.4</ele><time>2026-04-07T15:07:18.578Z</time></trkpt><trkpt lat="46.6151911" lon="12.475966"><ele>1225.6</ele><time>2026-04-07T15:07:19.579Z</time></trkpt><trkpt lat="46.6151414" lon="12.4760901"><ele>1225.8</ele><time>2026-04-07T15:07:20.579Z</time></trkpt><trkpt lat="46.6150893" lon="12.4762118"><ele>1226.0</ele><time>2026-04-07T15:07:21.579Z</time></trkpt><trkpt lat="46.6150399" lon="12.4763356"><ele>1226.0</ele><time>2026-04-07T15:07:22.578Z</time></trkpt><trkpt lat="46.6149881" lon="12.4764563"><ele>1226.0</ele><time>2026-04-07T15:07:23.579Z</time></trkpt><trkpt lat="46.6149362" lon="12.4765742"><ele>1226.0</ele><time>2026-04-07T15:07:24.579Z</time></trkpt><trkpt lat="46.6148862" lon="12.4766954"><ele>1226.0</ele><time>2026-04-07T15:07:25.578Z</time></trkpt><trkpt lat="46.6148348" lon="12.4768141"><ele>1226.0</ele><time>2026-04-07T15:07:26.579Z</time></trkpt><trkpt lat="46.6147837" lon="12.4769334"><ele>1226.0</ele><time>2026-04-07T15:07:27.579Z</time></trkpt><trkpt lat="46.6147349" lon="12.4770534"><ele>1226.0</ele><time>2026-04-07T15:07:28.579Z</time></trkpt><trkpt lat="46.614684" lon="12.4771706"><ele>1226.0</ele><time>2026-04-07T15:07:29.579Z</time></trkpt><trkpt lat="46.6146338" lon="12.4772901"><ele>1226.0</ele><time>2026-04-07T15:07:30.579Z</time></trkpt><trkpt lat="46.6145838" lon="12.4774059"><ele>1226.0</ele><time>2026-04-07T15:07:31.577Z</time></trkpt><trkpt lat="46.6145337" lon="12.4775245"><ele>1226.6</ele><time>2026-04-07T15:07:32.579Z</time></trkpt><trkpt lat="46.614486" lon="12.4776422"><ele>1227.1999999999998</ele><time>2026-04-07T15:07:33.578Z</time></trkpt><trkpt lat="46.6144376" lon="12.4777593"><ele>1227.8000000000002</ele><time>2026-04-07T15:07:34.579Z</time></trkpt><trkpt lat="46.6143897" lon="12.4778776"><ele>1228.4</ele><time>2026-04-07T15:07:35.579Z</time></trkpt><trkpt lat="46.6143387" lon="12.4779943"><ele>1229.0</ele><time>2026-04-07T15:07:36.579Z</time></trkpt><trkpt lat="46.6142852" lon="12.4781079"><ele>1229.0</ele><time>2026-04-07T15:07:37.577Z</time></trkpt><trkpt lat="46.6142203" lon="12.4782085"><ele>1229.0</ele><time>2026-04-07T15:07:38.579Z</time></trkpt><trkpt lat="46.6141481" lon="12.4782979"><ele>1229.0</ele><time>2026-04-07T15:07:39.579Z</time></trkpt><trkpt lat="46.6140705" lon="12.478374"><ele>1229.0</ele><time>2026-04-07T15:07:40.577Z</time></trkpt><trkpt lat="46.6139873" lon="12.4784401"><ele>1229.0</ele><time>2026-04-07T15:07:41.578Z</time></trkpt><trkpt lat="46.6139023" lon="12.478494"><ele>1229.0</ele><time>2026-04-07T15:07:42.578Z</time></trkpt><trkpt lat="46.6138174" lon="12.4785449"><ele>1229.0</ele><time>2026-04-07T15:07:43.577Z</time></trkpt><trkpt lat="46.6137316" lon="12.4785898"><ele>1229.0</ele><time>2026-04-07T15:07:44.578Z</time></trkpt><trkpt lat="46.6136462" lon="12.478634"><ele>1229.0</ele><time>2026-04-07T15:07:45.579Z</time></trkpt><trkpt lat="46.6135625" lon="12.4786773"><ele>1229.0</ele><time>2026-04-07T15:07:46.578Z</time></trkpt><trkpt lat="46.6134793" lon="12.4787225"><ele>1230.6666666666667</ele><time>2026-04-07T15:07:47.579Z</time></trkpt><trkpt lat="46.6133972" lon="12.4787677"><ele>1232.3333333333335</ele><time>2026-04-07T15:07:48.578Z</time></trkpt><trkpt lat="46.613317" lon="12.4788117"><ele>1234.0</ele><time>2026-04-07T15:07:49.578Z</time></trkpt><trkpt lat="46.6132346" lon="12.4788517"><ele>1235.6666666666667</ele><time>2026-04-07T15:07:50.578Z</time></trkpt><trkpt lat="46.6131541" lon="12.4788945"><ele>1237.3333333333333</ele><time>2026-04-07T15:07:51.578Z</time></trkpt><trkpt lat="46.6130756" lon="12.4789413"><ele>1239.0</ele><time>2026-04-07T15:07:52.577Z</time></trkpt><trkpt lat="46.6129957" lon="12.4789845"><ele>1239.0</ele><time>2026-04-07T15:07:53.577Z</time></trkpt><trkpt lat="46.6129142" lon="12.4790218"><ele>1239.0</ele><time>2026-04-07T15:07:54.578Z</time></trkpt><trkpt lat="46.6128369" lon="12.4790607"><ele>1239.0</ele><time>2026-04-07T15:07:55.579Z</time></trkpt><trkpt lat="46.6127593" lon="12.4790995"><ele>1239.0</ele><time>2026-04-07T15:07:56.577Z</time></trkpt><trkpt lat="46.6126807" lon="12.4791438"><ele>1239.0</ele><time>2026-04-07T15:07:57.578Z</time></trkpt><trkpt lat="46.6126095" lon="12.4791917"><ele>1239.0</ele><time>2026-04-07T15:07:58.579Z</time></trkpt><trkpt lat="46.6125365" lon="12.4792375"><ele>1235.5</ele><time>2026-04-07T15:07:59.579Z</time></trkpt><trkpt lat="46.6124669" lon="12.4792891"><ele>1232.0</ele><time>2026-04-07T15:08:00.579Z</time></trkpt><trkpt lat="46.6123994" lon="12.4793462"><ele>1228.5</ele><time>2026-04-07T15:08:01.579Z</time></trkpt><trkpt lat="46.6123342" lon="12.4794101"><ele>1225.0</ele><time>2026-04-07T15:08:02.579Z</time></trkpt><trkpt lat="46.612269" lon="12.4794731"><ele>1221.5</ele><time>2026-04-07T15:08:03.577Z</time></trkpt><trkpt lat="46.612201" lon="12.479533"><ele>1218.0</ele><time>2026-04-07T15:08:04.579Z</time></trkpt><trkpt lat="46.612137" lon="12.4795924"><ele>1219.5</ele><time>2026-04-07T15:08:05.579Z</time></trkpt><trkpt lat="46.6120703" lon="12.4796527"><ele>1221.0</ele><time>2026-04-07T15:08:06.578Z</time></trkpt><trkpt lat="46.6120058" lon="12.4797144"><ele>1222.5</ele><time>2026-04-07T15:08:07.579Z</time></trkpt><trkpt lat="46.6119365" lon="12.4797688"><ele>1224.0</ele><time>2026-04-07T15:08:08.578Z</time></trkpt><trkpt lat="46.6118676" lon="12.4798172"><ele>1225.5</ele><time>2026-04-07T15:08:09.579Z</time></trkpt><trkpt lat="46.6117985" lon="12.4798683"><ele>1227.0</ele><time>2026-04-07T15:08:10.579Z</time></trkpt><trkpt lat="46.6117263" lon="12.4799081"><ele>1227.0</ele><time>2026-04-07T15:08:11.579Z</time></trkpt><trkpt lat="46.6116559" lon="12.4799487"><ele>1227.0</ele><time>2026-04-07T15:08:12.579Z</time></trkpt><trkpt lat="46.6115828" lon="12.4799884"><ele>1227.0</ele><time>2026-04-07T15:08:13.578Z</time></trkpt><trkpt lat="46.6115093" lon="12.4800294"><ele>1227.0</ele><time>2026-04-07T15:08:14.579Z</time></trkpt><trkpt lat="46.6114364" lon="12.4800694"><ele>1227.0</ele><time>2026-04-07T15:08:15.579Z</time></trkpt><trkpt lat="46.6113632" lon="12.4801055"><ele>1227.0</ele><time>2026-04-07T15:08:16.578Z</time></trkpt><trkpt lat="46.6112919" lon="12.480144"><ele>1227.0</ele><time>2026-04-07T15:08:17.579Z</time></trkpt><trkpt lat="46.6112179" lon="12.4801802"><ele>1227.0</ele><time>2026-04-07T15:08:18.579Z</time></trkpt><trkpt lat="46.6111455" lon="12.4802171"><ele>1227.0</ele><time>2026-04-07T15:08:19.578Z</time></trkpt><trkpt lat="46.6110727" lon="12.4802558"><ele>1227.0</ele><time>2026-04-07T15:08:20.578Z</time></trkpt><trkpt lat="46.6109974" lon="12.4802933"><ele>1227.0</ele><time>2026-04-07T15:08:21.579Z</time></trkpt><trkpt lat="46.6109234" lon="12.480332"><ele>1227.0</ele><time>2026-04-07T15:08:22.578Z</time></trkpt><trkpt lat="46.6108475" lon="12.4803663"><ele>1228.8333333333333</ele><time>2026-04-07T15:08:23.579Z</time></trkpt><trkpt lat="46.6107699" lon="12.4803922"><ele>1230.6666666666667</ele><time>2026-04-07T15:08:24.578Z</time></trkpt><trkpt lat="46.610692" lon="12.4804163"><ele>1232.5</ele><time>2026-04-07T15:08:25.579Z</time></trkpt><trkpt lat="46.6106134" lon="12.4804381"><ele>1234.3333333333335</ele><time>2026-04-07T15:08:26.578Z</time></trkpt><trkpt lat="46.6105352" lon="12.48046"><ele>1236.1666666666667</ele><time>2026-04-07T15:08:27.578Z</time></trkpt><trkpt lat="46.6104578" lon="12.480482"><ele>1238.0</ele><time>2026-04-07T15:08:28.578Z</time></trkpt><trkpt lat="46.6103808" lon="12.4805011"><ele>1235.0</ele><time>2026-04-07T15:08:29.578Z</time></trkpt><trkpt lat="46.6103043" lon="12.4805281"><ele>1232.0</ele><time>2026-04-07T15:08:30.578Z</time></trkpt><trkpt lat="46.6102271" lon="12.4805549"><ele>1229.0</ele><time>2026-04-07T15:08:31.579Z</time></trkpt><trkpt lat="46.6101507" lon="12.4805757"><ele>1226.0</ele><time>2026-04-07T15:08:32.578Z</time></trkpt><trkpt lat="46.6100761" lon="12.4805976"><ele>1223.0</ele><time>2026-04-07T15:08:33.579Z</time></trkpt><trkpt lat="46.6100017" lon="12.4806217"><ele>1220.0</ele><time>2026-04-07T15:08:34.578Z</time></trkpt><trkpt lat="46.6099266" lon="12.480643"><ele>1220.0</ele><time>2026-04-07T15:08:35.579Z</time></trkpt><trkpt lat="46.6098503" lon="12.480661"><ele>1220.0</ele><time>2026-04-07T15:08:36.579Z</time></trkpt><trkpt lat="46.6097734" lon="12.4806859"><ele>1220.0</ele><time>2026-04-07T15:08:37.577Z</time></trkpt><trkpt lat="46.6096978" lon="12.4807118"><ele>1220.0</ele><time>2026-04-07T15:08:38.578Z</time></trkpt><trkpt lat="46.6096232" lon="12.4807316"><ele>1220.0</ele><time>2026-04-07T15:08:39.578Z</time></trkpt><trkpt lat="46.6095469" lon="12.4807515"><ele>1220.0</ele><time>2026-04-07T15:08:40.579Z</time></trkpt><trkpt lat="46.6094721" lon="12.4807745"><ele>1219.142857142857</ele><time>2026-04-07T15:08:41.579Z</time></trkpt><trkpt lat="46.6093973" lon="12.4807989"><ele>1218.2857142857142</ele><time>2026-04-07T15:08:42.579Z</time></trkpt><trkpt lat="46.6093232" lon="12.4808234"><ele>1217.4285714285713</ele><time>2026-04-07T15:08:43.577Z</time></trkpt><trkpt lat="46.6092492" lon="12.4808436"><ele>1216.5714285714284</ele><time>2026-04-07T15:08:44.578Z</time></trkpt><trkpt lat="46.6091773" lon="12.4808663"><ele>1215.7142857142858</ele><time>2026-04-07T15:08:45.577Z</time></trkpt><trkpt lat="46.6091026" lon="12.4808894"><ele>1214.8571428571427</ele><time>2026-04-07T15:08:46.578Z</time></trkpt><trkpt lat="46.6090337" lon="12.4809161"><ele>1214.0</ele><time>2026-04-07T15:08:47.578Z</time></trkpt><trkpt lat="46.608963" lon="12.4809396"><ele>1214.0</ele><time>2026-04-07T15:08:48.579Z</time></trkpt><trkpt lat="46.6088953" lon="12.4809682"><ele>1214.0</ele><time>2026-04-07T15:08:49.578Z</time></trkpt><trkpt lat="46.6088342" lon="12.4809981"><ele>1214.0</ele><time>2026-04-07T15:08:50.579Z</time></trkpt><trkpt lat="46.6087788" lon="12.4810426"><ele>1214.0</ele><time>2026-04-07T15:08:51.579Z</time></trkpt><trkpt lat="46.6086745" lon="12.4811172"><ele>1214.0</ele><time>2026-04-07T15:08:53.579Z</time></trkpt><trkpt lat="46.6085755" lon="12.4810468"><ele>1214.0</ele><time>2026-04-07T15:08:55.578Z</time></trkpt><trkpt lat="46.6085347" lon="12.4809657"><ele>1213.6666666666667</ele><time>2026-04-07T15:08:56.58Z</time></trkpt><trkpt lat="46.6084934" lon="12.4808755"><ele>1213.3333333333335</ele><time>2026-04-07T15:08:57.58Z</time></trkpt><trkpt lat="46.6084463" lon="12.4807756"><ele>1213.0</ele><time>2026-04-07T15:08:58.58Z</time></trkpt><trkpt lat="46.6083897" lon="12.480674"><ele>1212.6666666666667</ele><time>2026-04-07T15:08:59.58Z</time></trkpt><trkpt lat="46.6083281" lon="12.4805692"><ele>1212.3333333333333</ele><time>2026-04-07T15:09:00.58Z</time></trkpt><trkpt lat="46.6082675" lon="12.4804661"><ele>1212.0</ele><time>2026-04-07T15:09:01.58Z</time></trkpt><trkpt lat="46.6081968" lon="12.480357"><ele>1211.0</ele><time>2026-04-07T15:09:02.579Z</time></trkpt><trkpt lat="46.6081282" lon="12.4802597"><ele>1210.0</ele><time>2026-04-07T15:09:03.58Z</time></trkpt><trkpt lat="46.6080746" lon="12.4801799"><ele>1209.0</ele><time>2026-04-07T15:09:04.58Z</time></trkpt><trkpt lat="46.608015" lon="12.4801256"><ele>1208.0</ele><time>2026-04-07T15:09:05.58Z</time></trkpt><trkpt lat="46.6079595" lon="12.4800812"><ele>1207.0</ele><time>2026-04-07T15:09:06.58Z</time></trkpt><trkpt lat="46.6078952" lon="12.4800524"><ele>1206.0</ele><time>2026-04-07T15:09:07.58Z</time></trkpt><trkpt lat="46.607831" lon="12.4800455"><ele>1205.0</ele><time>2026-04-07T15:09:08.579Z</time></trkpt><trkpt lat="46.6077643" lon="12.4800596"><ele>1204.142857142857</ele><time>2026-04-07T15:09:09.579Z</time></trkpt><trkpt lat="46.6076987" lon="12.4800813"><ele>1203.2857142857142</ele><time>2026-04-07T15:09:10.58Z</time></trkpt><trkpt lat="46.6076327" lon="12.4801095"><ele>1202.4285714285716</ele><time>2026-04-07T15:09:11.58Z</time></trkpt><trkpt lat="46.607565" lon="12.4801412"><ele>1201.5714285714284</ele><time>2026-04-07T15:09:12.579Z</time></trkpt><trkpt lat="46.6075008" lon="12.4801774"><ele>1200.7142857142856</ele><time>2026-04-07T15:09:13.58Z</time></trkpt><trkpt lat="46.6074352" lon="12.4802155"><ele>1199.857142857143</ele><time>2026-04-07T15:09:14.579Z</time></trkpt><trkpt lat="46.6073739" lon="12.4802634"><ele>1199.0</ele><time>2026-04-07T15:09:15.58Z</time></trkpt><trkpt lat="46.6073116" lon="12.4803058"><ele>1199.0</ele><time>2026-04-07T15:09:16.579Z</time></trkpt><trkpt lat="46.6072487" lon="12.4803476"><ele>1199.0</ele><time>2026-04-07T15:09:17.579Z</time></trkpt><trkpt lat="46.6071868" lon="12.4803836"><ele>1199.0</ele><time>2026-04-07T15:09:18.579Z</time></trkpt><trkpt lat="46.6071224" lon="12.4804189"><ele>1199.0</ele><time>2026-04-07T15:09:19.58Z</time></trkpt><trkpt lat="46.6070595" lon="12.4804587"><ele>1199.0</ele><time>2026-04-07T15:09:20.58Z</time></trkpt><trkpt lat="46.6070001" lon="12.4804961"><ele>1199.0</ele><time>2026-04-07T15:09:21.58Z</time></trkpt><trkpt lat="46.6069397" lon="12.4805362"><ele>1199.0</ele><time>2026-04-07T15:09:22.579Z</time></trkpt><trkpt lat="46.6068837" lon="12.480583"><ele>1199.25</ele><time>2026-04-07T15:09:23.579Z</time></trkpt><trkpt lat="46.606781" lon="12.4806683"><ele>1199.5</ele><time>2026-04-07T15:09:25.58Z</time></trkpt><trkpt lat="46.6066722" lon="12.4806988"><ele>1199.75</ele><time>2026-04-07T15:09:27.579Z</time></trkpt><trkpt lat="46.6065833" lon="12.4806098"><ele>1200.0</ele><time>2026-04-07T15:09:29.579Z</time></trkpt><trkpt lat="46.6065111" lon="12.4804809"><ele>1199.25</ele><time>2026-04-07T15:09:31.58Z</time></trkpt><trkpt lat="46.6064388" lon="12.4803486"><ele>1198.5</ele><time>2026-04-07T15:09:33.58Z</time></trkpt><trkpt lat="46.606369" lon="12.480209"><ele>1197.75</ele><time>2026-04-07T15:09:35.579Z</time></trkpt><trkpt lat="46.6063024" lon="12.4800702"><ele>1197.0</ele><time>2026-04-07T15:09:37.579Z</time></trkpt><trkpt lat="46.6062301" lon="12.4799358"><ele>1198.25</ele><time>2026-04-07T15:09:39.58Z</time></trkpt><trkpt lat="46.6061385" lon="12.4798296"><ele>1199.5</ele><time>2026-04-07T15:09:41.58Z</time></trkpt><trkpt lat="46.606035" lon="12.4797625"><ele>1200.75</ele><time>2026-04-07T15:09:43.579Z</time></trkpt><trkpt lat="46.6059251" lon="12.479746"><ele>1202.0</ele><time>2026-04-07T15:09:45.579Z</time></trkpt><trkpt lat="46.6058125" lon="12.4797559"><ele>1202.0</ele><time>2026-04-07T15:09:47.58Z</time></trkpt><trkpt lat="46.6057022" lon="12.4797736"><ele>1202.0</ele><time>2026-04-07T15:09:49.58Z</time></trkpt><trkpt lat="46.6055876" lon="12.4798061"><ele>1202.0</ele><time>2026-04-07T15:09:51.579Z</time></trkpt><trkpt lat="46.605473" lon="12.479841"><ele>1202.0</ele><time>2026-04-07T15:09:53.58Z</time></trkpt><trkpt lat="46.6053578" lon="12.4798702"><ele>1202.25</ele><time>2026-04-07T15:09:55.58Z</time></trkpt><trkpt lat="46.6052433" lon="12.4799059"><ele>1202.5</ele><time>2026-04-07T15:09:57.58Z</time></trkpt><trkpt lat="46.6051286" lon="12.4799438"><ele>1202.75</ele><time>2026-04-07T15:09:59.579Z</time></trkpt><trkpt lat="46.605015" lon="12.4799773"><ele>1203.0</ele><time>2026-04-07T15:10:01.58Z</time></trkpt><trkpt lat="46.6048997" lon="12.4800034"><ele>1203.0</ele><time>2026-04-07T15:10:03.58Z</time></trkpt><trkpt lat="46.6047834" lon="12.4800469"><ele>1203.0</ele><time>2026-04-07T15:10:05.578Z</time></trkpt><trkpt lat="46.6046633" lon="12.4800767"><ele>1203.0</ele><time>2026-04-07T15:10:07.579Z</time></trkpt><trkpt lat="46.6045418" lon="12.4801119"><ele>1203.0</ele><time>2026-04-07T15:10:09.58Z</time></trkpt><trkpt lat="46.6044229" lon="12.4801491"><ele>1203.5</ele><time>2026-04-07T15:10:11.58Z</time></trkpt><trkpt lat="46.604306" lon="12.4801819"><ele>1204.0</ele><time>2026-04-07T15:10:13.58Z</time></trkpt><trkpt lat="46.604195" lon="12.4802197"><ele>1204.5</ele><time>2026-04-07T15:10:15.58Z</time></trkpt><trkpt lat="46.6040834" lon="12.4802486"><ele>1205.0</ele><time>2026-04-07T15:10:17.58Z</time></trkpt><trkpt lat="46.6039698" lon="12.4802697"><ele>1205.0</ele><time>2026-04-07T15:10:19.579Z</time></trkpt><trkpt lat="46.6038601" lon="12.4802815"><ele>1205.0</ele><time>2026-04-07T15:10:21.58Z</time></trkpt><trkpt lat="46.603755" lon="12.4802754"><ele>1205.0</ele><time>2026-04-07T15:10:23.579Z</time></trkpt><trkpt lat="46.6036521" lon="12.4802558"><ele>1205.0</ele><time>2026-04-07T15:10:25.579Z</time></trkpt><trkpt lat="46.6035548" lon="12.4802129"><ele>1205.0</ele><time>2026-04-07T15:10:27.578Z</time></trkpt><trkpt lat="46.6034587" lon="12.4801735"><ele>1205.0</ele><time>2026-04-07T15:10:29.579Z</time></trkpt><trkpt lat="46.603368" lon="12.4801216"><ele>1205.0</ele><time>2026-04-07T15:10:31.58Z</time></trkpt><trkpt lat="46.6032805" lon="12.4800635"><ele>1205.0</ele><time>2026-04-07T15:10:33.58Z</time></trkpt><trkpt lat="46.6031925" lon="12.4800104"><ele>1205.0</ele><time>2026-04-07T15:10:35.58Z</time></trkpt><trkpt lat="46.6031101" lon="12.479955"><ele>1205.0</ele><time>2026-04-07T15:10:37.58Z</time></trkpt><trkpt lat="46.6030285" lon="12.4799047"><ele>1205.0</ele><time>2026-04-07T15:10:39.579Z</time></trkpt><trkpt lat="46.6029528" lon="12.4798572"><ele>1205.0</ele><time>2026-04-07T15:10:41.58Z</time></trkpt><trkpt lat="46.6028793" lon="12.4798152"><ele>1205.0</ele><time>2026-04-07T15:10:43.579Z</time></trkpt><trkpt lat="46.6028093" lon="12.4797671"><ele>1205.0</ele><time>2026-04-07T15:10:45.579Z</time></trkpt><trkpt lat="46.6027335" lon="12.4797292"><ele>1205.0</ele><time>2026-04-07T15:10:47.579Z</time></trkpt><trkpt lat="46.6026638" lon="12.4796816"><ele>1205.0</ele><time>2026-04-07T15:10:49.58Z</time></trkpt><trkpt lat="46.6025998" lon="12.4796381"><ele>1214.0</ele><time>2026-04-07T15:10:51.579Z</time></trkpt><trkpt lat="46.6025952" lon="12.4795111"><ele>1214.0</ele><time>2026-04-07T15:10:54.58Z</time></trkpt><trkpt lat="46.6026255" lon="12.4794153"><ele>1214.0</ele><time>2026-04-07T15:10:57.579Z</time></trkpt></trkseg></trk></gpx>